地図

経路データ

SID SEASON NUMBER BASIN SUBBASIN NAME ISO_TIME NATURE LAT LON WMO_WIND WMO_PRES WMO_AGENCY TRACK_TYPE DIST2LAND LANDFALL IFLAG USA_AGENCY USA_ATCF_ID USA_LAT USA_LON USA_RECORD USA_STATUS USA_WIND USA_PRES USA_SSHS USA_R34_NE USA_R34_SE USA_R34_SW USA_R34_NW USA_R50_NE USA_R50_SE USA_R50_SW USA_R50_NW USA_R64_NE USA_R64_SE USA_R64_SW USA_R64_NW USA_POCI USA_ROCI USA_RMW USA_EYE TOKYO_LAT TOKYO_LON TOKYO_GRADE TOKYO_WIND TOKYO_PRES TOKYO_R50_DIR TOKYO_R50_LONG TOKYO_R50_SHORT TOKYO_R30_DIR TOKYO_R30_LONG TOKYO_R30_SHORT TOKYO_LAND CMA_LAT CMA_LON CMA_CAT CMA_WIND CMA_PRES HKO_LAT HKO_LON HKO_CAT HKO_WIND HKO_PRES NEWDELHI_LAT NEWDELHI_LON NEWDELHI_GRADE NEWDELHI_WIND NEWDELHI_PRES NEWDELHI_CI NEWDELHI_DP NEWDELHI_POCI REUNION_LAT REUNION_LON REUNION_TYPE REUNION_WIND REUNION_PRES REUNION_TNUM REUNION_CI REUNION_RMW REUNION_R34_NE REUNION_R34_SE REUNION_R34_SW REUNION_R34_NW REUNION_R50_NE REUNION_R50_SE REUNION_R50_SW REUNION_R50_NW REUNION_R64_NE REUNION_R64_SE REUNION_R64_SW REUNION_R64_NW BOM_LAT BOM_LON BOM_TYPE BOM_WIND BOM_PRES BOM_TNUM BOM_CI BOM_RMW BOM_R34_NE BOM_R34_SE BOM_R34_SW BOM_R34_NW BOM_R50_NE BOM_R50_SE BOM_R50_SW BOM_R50_NW BOM_R64_NE BOM_R64_SE BOM_R64_SW BOM_R64_NW BOM_ROCI BOM_POCI BOM_EYE BOM_POS_METHOD BOM_PRES_METHOD NADI_LAT NADI_LON NADI_CAT NADI_WIND NADI_PRES WELLINGTON_LAT WELLINGTON_LON WELLINGTON_WIND WELLINGTON_PRES DS824_LAT DS824_LON DS824_STAGE DS824_WIND DS824_PRES TD9636_LAT TD9636_LON TD9636_STAGE TD9636_WIND TD9636_PRES TD9635_LAT TD9635_LON TD9635_WIND TD9635_PRES TD9635_ROCI NEUMANN_LAT NEUMANN_LON NEUMANN_CLASS NEUMANN_WIND NEUMANN_PRES MLC_LAT MLC_LON MLC_CLASS MLC_WIND MLC_PRES USA_GUST BOM_GUST BOM_GUST_PER REUNION_GUST REUNION_GUST_PER USA_SEAHGT USA_SEARAD_NE USA_SEARAD_SE USA_SEARAD_SW USA_SEARAD_NW STORM_SPEED STORM_DIR
1979042S05170 1979 11 SP MM KERRY 1979-02-11 00:00:00 TS -4.80000 170.100 main 1084 1070 O________OO___ jtwc_sh SH131979 -4.80000 170.100 30 -1 -4.80000 170.100 TC 30 -4.80000 170.100 1 4 177
1979042S05170 1979 11 SP MM KERRY 1979-02-11 03:00:00 TS -5.00146 170.101 main 1070 1057 P________PP___ SH131979 -5.01000 170.110 35 0 -5.01000 170.110 TC 35 -4.98437 170.083 1 4 0
1979042S05170 1979 11 SP MM KERRY 1979-02-11 06:00:00 TS -5.18833 170.088 main 1057 1050 O________OP___ jtwc_sh SH131979 -5.20000 170.100 40 0 -5.20000 170.100 TC 40 -5.16500 170.062 1 4 189
1979042S05170 1979 11 SP MM KERRY 1979-02-11 09:00:00 TS -5.35104 170.050 main 1044 1028 P________PP___ SH131979 -5.35750 170.058 42 0 -5.35750 170.058 TC 42 -5.33812 170.036 1 3 196
1979042S05170 1979 11 SP MM KERRY 1979-02-11 12:00:00 TS -5.50000 170.000 main 1028 1022 O________OO___ jtwc_sh SH131979 -5.50000 170.000 45 0 -5.50000 170.000 TC 45 -5.50000 170.000 1 3 198
1979042S05170 1979 11 SP MM KERRY 1979-02-11 15:00:00 TS -5.64969 169.951 main 1022 1000 P________PP___ SH131979 -5.65000 169.950 47 0 -5.65000 169.950 TC 47 -5.64907 169.953 1 3 199
1979042S05170 1979 11 SP MM KERRY 1979-02-11 18:00:00 TS -5.79750 169.900 main 1000 994 O________OP___ jtwc_sh SH131979 -5.80000 169.900 50 0 -5.80000 169.900 TC 50 -5.79251 169.900 1 3 199
1979042S05170 1979 11 SP MM KERRY 1979-02-11 21:00:00 TS -5.94156 169.849 main 985 973 P________PP___ SH131979 -5.94250 169.850 52 0 -5.94250 169.850 TC 52 -5.93969 169.847 1 3 197
1979042S05170 1979 11 SP MM KERRY 1979-02-12 00:00:00 TS -6.10000 169.800 main 973 961 O________OO___ jtwc_sh SH131979 -6.10000 169.800 55 0 -6.10000 169.800 TC 55 -6.10000 169.800 1 4 196
1979042S05170 1979 11 SP MM KERRY 1979-02-12 03:00:00 TS -6.29292 169.752 main 961 940 P________PP___ SH131979 -6.29250 169.743 57 0 -6.29250 169.743 TC 57 -6.29375 169.772 1 4 191
1979042S05170 1979 11 SP MM KERRY 1979-02-12 06:00:00 TS -6.50000 169.717 main 940 929 O________OP___ jtwc_sh SH131979 -6.50000 169.700 60 0 -6.50000 169.700 TC 60 -6.49999 169.750 1 4 186
1979042S05170 1979 11 SP MM KERRY 1979-02-12 09:00:00 TS -6.70708 169.709 main 929 918 P________PP___ SH131979 -6.70750 169.700 60 0 -6.70750 169.700 TC 60 -6.70625 169.728 1 4 0
1979042S05170 1979 11 SP MM KERRY 1979-02-12 12:00:00 TS -6.90000 169.700 main 918 907 O________OO___ jtwc_sh SH131979 -6.90000 169.700 60 0 -6.90000 169.700 TC 60 -6.90000 169.700 1 4 0
1979042S05170 1979 11 SP MM KERRY 1979-02-12 15:00:00 TS -7.06108 169.682 main 907 893 P________PP___ SH131979 -7.05750 169.658 60 0 -7.05750 169.658 TC 60 -7.06824 169.730 1 3 189
1979042S05170 1979 11 SP MM KERRY 1979-02-12 18:00:00 TS -7.20738 169.647 main 893 888 O________OP___ jtwc_sh SH131979 -7.20000 169.600 60 0 -7.20000 169.600 TC 60 -7.22212 169.742 1 3 187
1979042S05170 1979 11 SP MM KERRY 1979-02-12 21:00:00 TS -7.35494 169.634 main 880 870 P________PP___ SH131979 -7.34992 169.610 62 0 -7.34992 169.610 TC 62 -7.36496 169.683 1 4 186
1979042S05170 1979 11 SP MM KERRY 1979-02-12 23:00:00 TS -7.50171 169.609 main 870 859 P_____O__PP___ SH131979 -7.44994 169.562 64 1 -8.10000 170.100 30 40 1003 3.00000 -7.44994 169.562 TC 64 -7.45566 169.578 1 55 55 6 0
1979042S05170 1979 11 SP MM KERRY 1979-02-13 00:00:00 TS -7.64947 169.629 main 859 826 O_____P__OO_O_ jtwc_sh SH131979 -7.50000 169.500 65 1 -8.09578 169.932 30 41 1002 -7.50000 169.500 TC 65 -7.50000 169.500 1 30 -8.10000 170.300 TC 25 1003 7 227
1979042S05170 1979 11 SP MM KERRY 1979-02-13 03:00:00 TS -7.81513 169.265 main 826 799 P_____P__PP_P_ SH131979 -7.65753 169.125 67 1 -8.09023 169.431 30 46 1001 -7.65753 169.125 TC 67 -7.64901 169.089 1 -8.09014 169.797 TC 27 1001 9 249
1979042S05170 1979 11 SP MM KERRY 1979-02-13 05:00:00 TS -7.90816 168.965 main 799 779 P_____O__PP_P_ SH131979 -7.75571 168.782 69 1 -8.10000 169.100 30 50 1000 3.50000 -7.75571 168.782 TC 69 -7.74359 168.744 1 -8.09326 169.465 TC 29 1000 69 69 9 253
1979042S05170 1979 11 SP MM KERRY 1979-02-13 06:00:00 TS -7.94988 168.816 main 779 724 O_____P__OP_O_ jtwc_sh SH131979 -7.80000 168.600 70 1 -8.11091 168.936 30 50 999 -7.80000 168.600 TC 70 -7.78836 168.560 1 -8.10000 169.300 TC 30 1000 10 260
1979042S05170 1979 11 SP MM KERRY 1979-02-13 09:00:00 TS -8.03328 168.282 main 724 680 P_____P__PP_P_ SH131979 -7.92263 168.020 70 1 -8.16115 168.441 30 50 998 -7.92263 168.020 TC 70 -7.90843 168.001 1 -8.14241 168.808 TC 32 998 11 261
1979042S05170 1979 11 SP MM KERRY 1979-02-13 11:00:00 TS -8.08268 167.934 main 680 670 P_____O__PP_P_ SH131979 -7.98077 167.654 70 1 -8.20000 168.100 30 50 997 3.50000 -7.98077 167.654 TC 70 -7.97319 167.655 1 -8.18066 168.472 TC 34 997 69 69 10 262
1979042S05170 1979 11 SP MM KERRY 1979-02-13 12:00:00 TS -8.10322 167.769 main 670 631 O_____P__OO_O_ jtwc_sh SH131979 -8.00000 167.500 70 1 -8.21930 167.915 30 50 996 -8.00000 167.500 TC 70 -8.00000 167.500 2 -8.20000 168.300 TC 35 997 9 265
1979042S05170 1979 11 SP MM KERRY 1979-02-13 15:00:00 TS -8.13750 167.352 main 631 602 P_____P__PP_P_ SH131979 -8.00737 167.205 70 1 -8.27460 167.348 30 53 994 -8.00737 167.205 TC 70 -8.02068 167.218 2 -8.25754 167.735 TC 37 995 8 266
1979042S05170 1979 11 SP MM KERRY 1979-02-13 17:00:00 TS -8.14948 167.107 main 602 587 P_____O__PP_P_ SH131979 -7.99948 167.068 70 1 -8.30000 167.000 30 55 993 4.00000 -7.99948 167.068 TC 70 -8.01985 167.069 2 -8.28906 167.369 TC 39 993 75 75 7 267
1979042S05170 1979 11 SP MM KERRY 1979-02-13 18:00:00 TS -8.15324 166.997 main 587 558 O_____P__OP_O_ jtwc_sh SH131979 -8.00000 167.000 70 1 -8.30023 166.881 30 56 992 -8.00000 167.000 TC 70 -8.01922 166.999 2 -8.30000 167.200 TC 40 993 6 269
1979042S05170 1979 11 SP MM KERRY 1979-02-13 21:00:00 TS -8.15646 166.703 main 558 539 P_____P__PP_P_ SH131979 -8.01992 166.780 67 1 -8.28913 166.545 30 61 989 -8.01992 166.780 TC 67 -8.03318 166.781 2 -8.29198 166.867 TC 45 990 6 267
1979042S05170 1979 11 SP MM KERRY 1979-02-13 23:00:00 TS -8.17879 166.455 main 539 520 P_____O__PP_P_ SH131979 -8.06353 166.606 65 1 -8.30000 166.200 40 65 988 4.50000 -8.06353 166.606 TC 65 -8.06955 166.604 2 -8.29088 166.594 TC 48 988 89 89 9 266
1979042S05170 1979 11 SP MM KERRY 1979-02-14 00:00:00 TS -8.18630 166.274 40 990 wellington main 520 451 O_____P_OOO_O_ jtwc_sh SH131979 -8.10000 166.500 65 1 -8.31439 165.912 40 65 987 -7.80000 166.000 40 990 -8.10000 166.500 TC 65 -8.10000 166.500 2 55 -8.30000 166.400 TC 50 988 13 261
1979042S05170 1979 11 SP MM KERRY 1979-02-14 03:00:00 TS -8.31258 165.559 main 451 392 P_____P_PPP_P_ SH131979 -8.26998 166.095 65 1 -8.39939 164.861 40 68 986 -8.11395 165.196 43 987 -8.26998 166.095 TC 65 -8.25914 166.112 2 -8.36322 165.423 TC 52 987 15 258
1979042S05170 1979 11 SP MM KERRY 1979-02-14 05:00:00 TS -8.43745 165.046 main 392 368 P_____O_PPP_P_ SH131979 -8.41973 165.772 65 1 -8.50000 164.200 40 70 986 4.50000 -8.32008 164.671 46 985 -8.41973 165.772 TC 65 -8.39764 165.812 2 -8.44464 164.713 TC 54 986 99 99 16 255
1979042S05170 1979 11 SP MM KERRY 1979-02-14 06:00:00 TS -8.50963 164.803 main 368 305 O_____P_POP_O_ jtwc_sh SH131979 -8.50000 165.600 65 1 -8.57121 163.957 40 70 985 -8.42167 164.414 47 985 -8.50000 165.600 TC 65 -8.47455 165.650 2 -8.50000 164.400 TC 55 986 13 248
1979042S05170 1979 11 SP MM KERRY 1979-02-14 09:00:00 TS -8.76501 164.223 main 297 266 P_____P_PPP_P_ SH131979 -8.74229 165.102 67 1 -8.83255 163.394 40 70 984 -8.71849 163.674 51 982 -8.74229 165.102 TC 67 -8.72768 165.112 2 -8.74213 163.760 TC 55 984 12 245
1979042S05170 1979 11 SP MM KERRY 1979-02-14 11:00:00 TS -8.94099 163.862 main 266 243 P_____O_PPP_P_ SH131979 -8.91391 164.717 69 1 -9.00000 163.100 40 70 983 4.50000 -8.90813 163.216 53 980 -8.91391 164.717 TC 69 -8.90824 164.712 2 -8.92006 163.443 TC 55 983 99 99 12 244
1979042S05170 1979 11 SP MM KERRY 1979-02-14 12:00:00 TS -9.02306 163.677 55 980 wellington main 243 185 O_____P_OOO_O_ jtwc_sh SH131979 -9.00000 164.500 70 1 -9.06139 162.936 40 70 982 -9.00000 163.000 55 980 -9.00000 164.500 TC 70 -9.00000 164.500 2 -9.00000 163.300 TC 55 983 12 249
1979042S05170 1979 11 SP MM KERRY 1979-02-14 15:00:00 TS -9.23309 163.075 main 185 143 P_____P_PPP_P_ SH131979 -9.24264 163.722 70 1 -9.21084 162.511 40 70 981 -9.26373 162.408 55 980 -9.24264 163.722 TC 70 -9.24934 163.765 2 -9.16496 162.840 TC 57 981 12 250
1979042S05170 1979 11 SP MM KERRY 1979-02-14 17:00:00 TS -9.36892 162.690 main 143 121 P_____O_PPP_P_ SH131979 -9.41101 163.168 70 1 -9.30000 162.300 40 70 980 4.50000 -9.43182 162.054 55 980 -9.41101 163.168 TC 70 -9.42385 163.237 2 -9.25524 162.597 TC 59 980 99 99 12 250
1979042S05170 1979 11 SP MM KERRY 1979-02-14 18:00:00 TS -9.43672 162.514 main 121 76 O_____P_POP_O_ jtwc_sh SH131979 -9.50000 162.900 70 1 -9.32891 162.242 40 70 979 -9.51423 161.887 55 980 -9.50000 162.900 TC 70 -9.51386 162.970 2 -9.30000 162.500 TC 60 980 10 246
1979042S05170 1979 11 SP MM KERRY 1979-02-14 21:00:00 TS -9.64251 162.062 main 76 49 P_____P_PPP_P_ SH131979 -9.78496 162.147 72 1 -9.43659 162.136 40 70 978 -9.75765 161.423 55 980 -9.78496 162.147 TC 72 -9.79629 162.190 2 -9.38978 162.372 TC 62 979 10 243
1979042S05170 1979 11 SP MM KERRY 1979-02-14 23:00:00 TS -9.81414 161.775 main 49 39 P_____O_PPP_P_ SH131979 -9.99166 161.700 74 1 -9.60000 162.000 40 70 978 4.50000 -9.91897 161.138 55 980 -9.99166 161.700 TC 74 -9.99616 161.715 2 -9.50419 162.282 TC 64 978 99 99 10 237
1979042S05170 1979 11 SP MM KERRY 1979-02-15 00:00:00 TS -9.92155 161.622 55 980 wellington main 40 10 O_____P_OOO_O_ jtwc_sh SH131979 -10.1000 161.500 75 1 -9.75088 161.855 40 70 978 -10.0000 161.000 55 980 -10.1000 161.500 TC 75 -10.1000 161.500 4 65 -9.60000 162.200 TC 65 978 12 231
1979042S05170 1979 11 SP MM KERRY 1979-02-15 03:00:00 TS -10.3303 161.128 main 21 21 P_____P_PPP_P_ SH131979 -10.4423 160.997 77 1 -10.3296 161.287 40 70 978 -10.2292 160.609 55 980 -10.4423 160.997 TC 77 -10.4559 160.987 4 66 -10.1277 161.688 TC 65 978 13 229
1979042S05170 1979 11 SP MM KERRY 1979-02-15 05:00:00 TS -10.6162 160.811 main 64 64 P_____O_PPP_P_ SH131979 -10.6806 160.725 79 1 -10.7000 160.900 40 70 978 4.50000 -10.3829 160.367 55 980 -10.6806 160.725 TC 79 -10.7046 160.702 4 67 -10.5244 161.287 TC 65 978 99 99 12 227
1979042S05170 1979 11 SP MM KERRY 1979-02-15 06:00:00 TS -10.7460 160.667 main 79 79 O_____P_POP_O_ jtwc_sh SH131979 -10.8000 160.600 80 1 -10.8311 160.747 40 70 978 -10.4618 160.249 55 980 -10.8000 160.600 TC 80 -10.8289 160.572 4 68 -10.7000 161.100 TC 65 978 11 228
1979042S05170 1979 11 SP MM KERRY 1979-02-15 09:00:00 TS -11.0804 160.279 main 138 138 P_____P_PPP_P_ SH131979 -11.1724 160.227 82 1 -11.1350 160.342 40 73 978 -10.7135 159.890 55 980 -11.1724 160.227 TC 82 -11.1874 160.222 4 70 -11.0449 160.670 TC 65 978 10 229
1979042S05170 1979 11 SP MM KERRY 1979-02-15 11:00:00 TS -11.2769 160.042 main 168 168 P_____O_PPP_P_ SH131979 -11.4004 160.006 84 2 -11.3000 160.100 40 75 978 4.50000 -10.8997 159.635 55 980 -11.4004 160.006 TC 84 -11.4029 160.006 4 71 -11.2188 160.420 TC 65 978 104 104 9 230
1979042S05170 1979 11 SP EA KERRY 1979-02-15 12:00:00 TS -11.3706 159.925 main 179 179 O_____P_OOO_O_ jtwc_sh SH131979 -11.5000 159.900 85 2 -11.3943 159.975 40 75 978 -11.0000 159.500 55 980 -11.5000 159.900 TC 85 -11.5000 159.900 4 72 -11.3000 160.300 TC 65 978 9 233
1979042S05170 1979 11 SP EA KERRY 1979-02-15 15:00:00 TS -11.6355 159.557 main 202 202 P_____P_PPP_P_ SH131979 -11.7299 159.600 85 2 -11.6545 159.620 40 75 978 -11.3600 158.960 55 980 -11.7299 159.600 TC 85 -11.7291 159.553 4 70 -11.5725 159.935 TC 65 978 9 235
1979042S05170 1979 11 SP EA KERRY 1979-02-15 17:00:00 TS -11.7897 159.320 75 978 bom main 230 230 P_____O_PPP_P_ SH131979 -11.8469 159.403 85 2 -11.8000 159.400 40 75 978 4.50000 -11.6192 158.582 55 980 -11.8469 159.403 TC 85 -11.8537 159.334 4 69 -11.7307 159.708 TC 65 978 104 104 8 237
1979042S05170 1979 11 SP EA KERRY 1979-02-15 18:00:00 TS -11.8595 159.203 main 244 244 O_____P_POP_O_ jtwc_sh SH131979 -11.9000 159.300 85 2 -11.8561 159.299 40 75 977 -11.7510 158.396 55 980 -11.9000 159.300 TC 85 -11.9097 159.227 4 68 -11.8000 159.600 TC 65 978 8 240
1979042S05170 1979 11 SP EA KERRY 1979-02-15 21:00:00 TS -12.0456 158.860 main 265 265 P_____P_PPP_P_ SH131979 -12.0575 158.950 87 2 -11.9950 159.010 40 75 977 -12.1413 157.885 55 980 -12.0575 158.950 TC 87 -12.0604 158.912 4 66 -11.9499 159.307 TC 65 977 8 241
1979042S05170 1979 11 SP EA KERRY 1979-02-15 23:00:00 TS -12.1626 158.637 75 977 bom main 299 299 P_____O_PPP_P_ SH131979 -12.1526 158.714 89 2 -12.1000 158.800 40 75 977 4.50000 -12.3859 157.609 55 980 -12.1526 158.714 TC 89 -12.1535 158.705 4 65 -12.0438 159.109 TC 65 977 104 104 8 241
1979042S05170 1979 11 SP EA KERRY 1979-02-16 00:00:00 TS -12.2257 158.525 main 303 303 O_____P_OOO_O_ jtwc_sh SH131979 -12.2000 158.600 90 2 -12.1798 158.673 40 75 976 -12.5000 157.500 55 980 -12.2000 158.600 TC 90 -12.2000 158.600 4 65 -12.1000 159.000 TC 65 977 8 238
1979042S05170 1979 11 SP EA KERRY 1979-02-16 03:00:00 TS -12.4340 158.185 main 339 339 P_____P_PPP_P_ SH131979 -12.3499 158.300 90 2 -12.4462 158.262 40 78 976 -12.7975 157.334 55 980 -12.3499 158.300 TC 90 -12.3371 158.210 4 66 -12.3576 158.600 TC 65 976 8 238
1979042S05170 1979 11 SP EA KERRY 1979-02-16 05:00:00 TS -12.5665 157.972 80 976 bom main 370 370 P_____O_PPP_P_ SH131979 -12.4500 158.103 90 2 -12.6000 158.000 40 80 976 5.00000 -12.9756 157.299 55 980 -12.4500 158.103 TC 90 -12.4252 157.953 4 67 -12.5286 158.327 TC 65 976 110 110 7 238
1979042S05170 1979 11 SP EA KERRY 1979-02-16 06:00:00 TS -12.6246 157.872 main 375 375 O_____P_POP_O_ jtwc_sh SH131979 -12.5000 158.000 90 2 -12.6426 157.875 40 80 975 -13.0593 157.299 55 980 -12.5000 158.000 TC 90 -12.4703 157.830 4 67 -12.6000 158.200 TC 65 976 6 243
1979042S05170 1979 11 SP EA KERRY 1979-02-16 09:00:00 TS -12.7641 157.580 main 412 412 P_____P_PPP_P_ SH131979 -12.6351 157.613 92 2 -12.7259 157.550 40 80 975 -13.2915 157.340 55 980 -12.6351 157.613 TC 92 -12.6183 157.510 4 68 -12.7000 157.847 TC 67 975 6 241
1979042S05170 1979 11 SP EA KERRY 1979-02-16 11:00:00 TS -12.8633 157.431 80 975 bom main 434 434 P_____O_PPP_P_ SH131979 -12.7386 157.385 94 2 -12.8000 157.400 40 80 975 5.00000 -13.4328 157.381 55 980 -12.7386 157.385 TC 94 -12.7345 157.355 4 69 -12.7574 157.666 TC 69 975 110 110 5 231
1979042S05170 1979 11 SP EA KERRY 1979-02-16 12:00:00 TS -12.9237 157.378 main 434 434 O_____P_OOO_O_ jtwc_sh SH131979 -12.8000 157.300 95 2 -12.8662 157.344 40 80 974 -13.5000 157.400 55 980 -12.8000 157.300 TC 95 -12.8000 157.300 4 70 -12.8000 157.600 TC 70 975 5 204
1979042S05170 1979 11 SP EA KERRY 1979-02-16 15:00:00 TS -13.1545 157.295 main 468 468 P_____P_PPP_P_ SH131979 -13.0274 157.168 97 3 -13.1170 157.275 40 80 973 -13.6925 157.389 57 977 -13.0274 157.168 TC 97 -13.0550 157.243 4 71 -13.0274 157.483 TC 70 974 5 190
1979042S05170 1979 11 SP EA KERRY 1979-02-16 17:00:00 TS -13.3264 157.307 80 973 bom main 477 477 P_____O_PPP_P_ SH131979 -13.2057 157.172 99 3 -13.3000 157.300 40 80 973 5.00000 -13.8089 157.385 59 975 -13.2057 157.172 TC 99 -13.2447 157.271 4 72 -13.2088 157.481 TC 70 973 110 110 5 170
1979042S05170 1979 11 SP EA KERRY 1979-02-16 18:00:00 TS -13.4129 157.330 main 486 486 O_____P_POP_O_ jtwc_sh SH131979 -13.3000 157.200 100 3 -13.3833 157.325 40 80 972 -13.8650 157.385 60 975 -13.3000 157.200 TC 100 -13.3422 157.300 4 72 -13.3000 157.500 TC 70 973 6 159
1979042S05170 1979 11 SP EA KERRY 1979-02-16 21:00:00 TS -13.6742 157.450 main 509 503 P_____P_PPP_P_ SH131979 -13.6075 157.362 102 3 -13.6333 157.470 40 80 971 -14.0300 157.389 62 972 -13.6075 157.362 TC 102 -13.6333 157.431 4 73 -13.5500 157.612 TC 72 972 6 152
1979042S05170 1979 11 SP EA KERRY 1979-02-16 23:00:00 TS -13.8449 157.564 80 971 bom main 507 517 P_____O_PPP_P_ SH131979 -13.8088 157.520 104 3 -13.8000 157.600 40 80 971 5.00000 -14.1420 157.395 64 970 -13.8088 157.520 TC 104 -13.8155 157.542 4 74 -13.7167 157.734 TC 74 971 110 110 6 146
1979042S05170 1979 11 SP EA KERRY 1979-02-17 00:00:00 TS -13.9273 157.623 main 517 517 O_____P_OOO_O_ jtwc_sh SH131979 -13.9000 157.600 105 3 -13.8912 157.664 40 80 970 -14.2000 157.400 65 970 -13.9000 157.600 TC 105 -13.9000 157.600 4 75 -13.8000 157.800 TC 75 971 6 145
1979042S05170 1979 11 SP EA KERRY 1979-02-17 03:00:00 TS -14.1575 157.793 main 538 534 P_____P_PPP_P_ SH131979 -14.1225 157.808 105 3 -14.1571 157.869 40 80 969 -14.4050 157.414 70 963 -14.1225 157.808 TC 105 -14.1079 157.754 4 77 -14.0725 158.000 TC 75 970 6 143
1979042S05170 1979 11 SP EA KERRY 1979-02-17 05:00:00 TS -14.2914 157.907 80 969 bom main 544 540 P_____O_PPP_P_ SH131979 -14.2443 157.939 105 3 -14.3000 158.000 40 80 969 5.00000 -14.5452 157.427 73 959 -14.2443 157.939 TC 105 -14.2302 157.873 4 79 -14.2338 158.136 TC 75 969 110 110 5 139
1979042S05170 1979 11 SP EA KERRY 1979-02-17 06:00:00 TS -14.3497 157.961 main 540 540 O_____P_POP_O_ jtwc_sh SH131979 -14.3000 158.000 105 3 -14.3452 158.056 40 80 968 -14.6150 157.435 75 957 -14.3000 158.000 TC 105 -14.2876 157.935 4 80 -14.3000 158.200 TC 75 969 4 137
1979042S05170 1979 11 SP EA KERRY 1979-02-17 09:00:00 TS -14.4960 158.104 main 557 554 P_____P_PPP_P_ SH131979 -14.4575 158.158 105 3 -14.4338 158.206 40 83 967 -14.8175 157.464 80 951 -14.4575 158.158 TC 105 -14.4485 158.123 4 82 -14.4075 158.358 TC 77 967 4 137
1979042S05170 1979 11 SP EA KERRY 1979-02-17 11:00:00 TS -14.5868 158.192 85 966 bom main 564 564 P_____O_PPP_P_ SH131979 -14.5526 158.253 105 3 -14.5000 158.300 40 85 966 5.00000 -14.9422 157.487 83 947 -14.5526 158.253 TC 105 -14.5500 158.243 4 84 -14.4631 158.453 TC 79 966 119 119 4 138
1979042S05170 1979 11 SP EA KERRY 1979-02-17 12:00:00 TS -14.6368 158.236 main 564 564 O_____P_OOO_O_ jtwc_sh SH131979 -14.6000 158.300 105 3 -14.5579 158.353 40 85 965 -15.0000 157.500 85 945 -14.6000 158.300 TC 105 -14.6000 158.300 4 85 -14.5000 158.500 TC 80 966 4 141
1979042S05170 1979 11 SP EA KERRY 1979-02-17 15:00:00 TS -14.8028 158.375 main 578 578 P_____P_PPP_P_ SH131979 -14.7500 158.458 105 3 -14.7637 158.508 40 88 964 -15.1263 157.559 83 947 -14.7500 158.458 TC 105 -14.7369 158.476 4 86 -14.6925 158.657 TC 82 964 4 142
1979042S05170 1979 11 SP EA KERRY 1979-02-17 17:00:00 TS -14.9135 158.460 90 963 bom main 581 581 P_____O_PPP_P_ SH131979 -14.8500 158.556 105 3 -14.9000 158.600 40 90 963 5.50000 -15.1992 157.602 82 949 -14.8500 158.556 TC 105 -14.8249 158.584 4 87 -14.8338 158.756 TC 84 963 124 124 4 143
1979042S05170 1979 11 SP EA KERRY 1979-02-17 18:00:00 TS -14.9643 158.500 main 590 584 O_____P_POP_O_ jtwc_sh SH131979 -14.9000 158.600 105 3 -14.9452 158.647 40 90 962 -15.2350 157.622 82 950 -14.9000 158.600 TC 105 -14.8700 158.632 4 87 -14.9000 158.800 TC 85 963 4 141
1979042S05170 1979 11 SP EA KERRY 1979-02-17 21:00:00 TS -15.0955 158.613 main 593 593 P_____P_PPP_P_ SH131979 -15.0350 158.723 105 3 -15.0738 158.762 40 90 961 -15.3513 157.675 81 952 -15.0350 158.723 TC 105 -15.0181 158.748 4 88 -15.0275 158.930 TC 85 961 3 147
1979042S05170 1979 11 SP EA KERRY 1979-02-17 23:00:00 TS -15.2023 158.661 90 960 bom main 596 596 P_____O_PPP_P_ SH131979 -15.1386 158.781 105 3 -15.2000 158.800 40 90 960 5.50000 -15.4453 157.695 80 954 -15.1386 158.781 TC 105 -15.1345 158.791 4 89 -15.1298 158.986 TC 85 960 124 124 4 162
1979042S05170 1979 11 SP EA KERRY 1979-02-18 00:00:00 TS -15.2717 158.672 main 605 605 O_____P_OOO_O_ jtwc_sh SH131979 -15.2000 158.800 105 3 -15.3017 158.806 40 90 959 -15.5000 157.700 80 955 -15.2000 158.800 TC 105 -15.2000 158.800 4 90 -15.2000 159.000 TC 85 960 5 177
1979042S05170 1979 11 SP EA KERRY 1979-02-18 03:00:00 TS -15.5557 158.666 main 633 633 P_____P_PPP_P_ SH131979 -15.4275 158.845 102 3 -15.6686 158.765 40 90 957 -15.7343 157.691 80 955 -15.4275 158.845 TC 102 -15.4471 158.789 4 91 -15.5425 158.988 TC 87 958 6 183
1979042S05170 1979 11 SP EA KERRY 1979-02-18 05:00:00 TS -15.7618 158.622 90 956 bom main 658 658 P_____O_PPP_P_ SH131979 -15.6057 158.828 100 3 -15.9000 158.700 40 90 956 5.50000 -15.9099 157.668 80 955 -15.6057 158.828 TC 100 -15.6316 158.745 4 92 -15.7900 158.936 TC 89 956 124 124 6 192
1979042S05170 1979 11 SP EA KERRY 1979-02-18 06:00:00 TS -15.8580 158.590 main 667 667 O_____P_POP_O_ jtwc_sh SH131979 -15.7000 158.800 100 3 -15.9785 158.667 40 90 955 -16.0000 157.653 80 955 -15.7000 158.800 TC 100 -15.7273 158.713 4 92 -15.9000 158.900 TC 90 956 6 204
1979042S05170 1979 11 SP EA KERRY 1979-02-18 09:00:00 TS -16.1117 158.460 main 692 692 P_____P_PPP_P_ SH131979 -16.0075 158.638 100 3 -16.1671 158.527 40 90 953 -16.2656 157.588 80 955 -16.0075 158.638 TC 100 -16.0189 158.580 4 93 -16.1075 158.780 TC 92 954 6 210
1979042S05170 1979 11 SP EA KERRY 1979-02-18 11:00:00 TS -16.2733 158.342 90 952 bom main 722 722 P_____O_PPP_P_ SH131979 -16.2088 158.483 100 3 -16.3000 158.400 40 90 952 5.50000 -16.4273 157.532 80 955 -16.2088 158.483 TC 100 -16.2088 158.465 4 94 -16.2298 158.667 TC 94 952 124 124 6 216
1979042S05170 1979 11 SP EA KERRY 1979-02-18 12:00:00 TS -16.3566 158.275 main 732 732 O_____P_OOO_O_ jtwc_sh SH131979 -16.3000 158.400 100 3 -16.3965 158.328 40 90 951 -16.5000 157.500 80 955 -16.3000 158.400 TC 100 -16.3000 158.400 4 95 -16.3000 158.600 TC 95 952 6 219
1979042S05170 1979 11 SP EA KERRY 1979-02-18 15:00:00 TS -16.6027 158.062 main 747 747 P_____P_PPP_P_ SH131979 -16.5075 158.157 100 3 -16.7129 158.078 40 90 950 -16.6406 157.413 78 956 -16.5075 158.157 TC 100 -16.5354 158.197 4 97 -16.6075 158.365 TC 97 951 6 222
1979042S05170 1979 11 SP EA KERRY 1979-02-18 17:00:00 TS -16.7556 157.904 90 950 bom main 752 752 P_____O_PPP_P_ SH131979 -16.6329 157.986 100 3 -16.9000 157.900 40 90 950 5.50000 -16.7150 157.342 77 957 -16.6329 157.986 TC 100 -16.6844 158.038 4 99 -16.8119 158.189 TC 99 950 124 124 6 226
1979042S05170 1979 11 SP EA KERRY 1979-02-18 18:00:00 TS -16.8242 157.824 main 761 755 O_____P_POP_O_ jtwc_sh SH131979 -16.7000 157.900 100 3 -16.9619 157.817 40 90 949 -16.7499 157.302 77 957 -16.7000 157.900 TC 100 -16.7576 157.952 4 100 -16.9000 158.100 TC 100 950 6 230
1979042S05170 1979 11 SP EA KERRY 1979-02-18 21:00:00 TS -17.0051 157.590 main 768 768 P_____P_PPP_P_ SH131979 -16.9424 157.657 97 3 -17.1005 157.566 40 93 946 -16.8593 157.166 76 958 -16.9424 157.657 TC 97 -16.9760 157.681 4 102 -17.0575 157.850 TC 102 947 6 231
1979042S05170 1979 11 SP EA KERRY 1979-02-18 23:00:00 TS -17.1275 157.428 95 945 bom main 781 776 P_____O_PPP_P_ SH131979 -17.1140 157.489 95 2 -17.2000 157.400 40 95 945 5.50000 -16.9477 157.059 75 959 -17.1140 157.489 TC 95 -17.1241 157.494 4 104 -17.1464 157.683 TC 104 945 135 135 6 231
1979042S05170 1979 11 SP EA KERRY 1979-02-19 00:00:00 TS -17.1964 157.345 main 786 780 O_____P_OOO_O_ jtwc_sh SH131979 -17.2000 157.400 95 2 -17.2745 157.314 40 95 945 -17.0000 157.000 75 960 -17.2000 157.400 TC 95 -17.2000 157.400 4 105 -17.2000 157.600 TC 105 945 7 227
1979042S05170 1979 11 SP EA KERRY 1979-02-19 03:00:00 TS -17.4406 157.082 main 795 790 P_____P_PPP_P_ SH131979 -17.4500 157.100 95 2 -17.5304 157.059 40 95 945 -17.2141 156.812 75 960 -17.4500 157.100 TC 95 -17.4550 157.120 4 -17.4425 157.343 TC 105 945 7 225
1979042S05170 1979 11 SP EA KERRY 1979-02-19 05:00:00 TS -17.6104 156.907 95 945 bom main 805 801 P_____O_PPP_P_ SH131979 -17.6167 156.897 95 2 -17.7000 156.900 40 95 945 5.50000 -17.3768 156.670 75 960 -17.6167 156.897 TC 95 -17.6286 156.930 4 -17.6171 157.178 TC 105 945 135 135 7 225
1979042S05170 1979 11 SP EA KERRY 1979-02-19 06:00:00 TS -17.6925 156.823 main 810 794 O_____P_POP_O_ jtwc_sh SH131979 -17.7000 156.800 95 2 -17.7697 156.833 40 95 945 -17.4625 156.595 75 960 -17.7000 156.800 TC 95 -17.7151 156.835 4 -17.7000 157.100 TC 105 945 7 224
1979042S05170 1979 11 SP EA KERRY 1979-02-19 09:00:00 TS -17.9251 156.592 main 794 763 P_____P_PPP_P_ SH131979 -17.9575 156.535 95 2 -17.9641 156.644 40 95 945 -17.7296 156.356 75 960 -17.9575 156.535 TC 95 -17.9676 156.558 4 -17.8999 156.907 TC 105 945 6 224
1979042S05170 1979 11 SP EA KERRY 1979-02-19 11:00:00 TS -18.0773 156.439 95 945 bom main 763 763 P_____O_PPP_P_ SH131979 -18.1224 156.375 95 2 -18.1000 156.500 40 95 945 5.50000 -17.9105 156.187 75 960 -18.1224 156.375 TC 95 -18.1255 156.383 4 -18.0302 156.775 TC 105 945 135 135 6 224
1979042S05170 1979 11 SP EA KERRY 1979-02-19 12:00:00 TS -18.1547 156.358 main 756 717 O_____P_OOO_O_ jtwc_sh SH131979 -18.2000 156.300 95 2 -18.1829 156.406 40 95 945 -18.0000 156.100 75 960 -18.2000 156.300 TC 95 -18.2000 156.300 4 -18.1000 156.700 TC 105 945 7 225
1979042S05170 1979 11 SP EA KERRY 1979-02-19 15:00:00 TS -18.4040 156.097 main 717 686 P_____P_PPP_P_ SH131979 -18.4150 156.092 95 2 -18.4438 156.095 40 95 945 -18.2989 155.824 73 961 -18.4150 156.092 TC 95 -18.4329 156.074 4 -18.3576 156.400 TC 105 945 7 225
1979042S05170 1979 11 SP EA KERRY 1979-02-19 17:00:00 TS -18.5587 155.926 95 945 bom main 686 686 P_____O_PPP_P_ SH131979 -18.5416 155.964 95 2 -18.6000 155.900 40 95 945 5.50000 -18.4962 155.632 72 962 -18.5416 155.964 TC 95 -18.5749 155.936 4 -18.5255 156.194 TC 105 945 135 135 7 227
1979042S05170 1979 11 SP EA KERRY 1979-02-19 18:00:00 TS -18.6285 155.847 main 678 648 O_____P_POP_O_ jtwc_sh SH131979 -18.6000 155.900 95 2 -18.6692 155.822 40 95 945 -18.5902 155.536 72 962 -18.6000 155.900 TC 95 -18.6398 155.870 4 -18.6000 156.100 TC 105 945 6 229
1979042S05170 1979 11 SP EA KERRY 1979-02-19 21:00:00 TS -18.8082 155.629 main 648 633 P_____P_PPP_P_ SH131979 -18.7800 155.693 95 2 -18.8345 155.622 40 98 945 -18.8364 155.255 71 963 -18.7800 155.693 TC 95 -18.8017 155.681 4 -18.7874 155.885 TC 105 945 5 232
1979042S05170 1979 11 SP EA KERRY 1979-02-19 23:00:00 TS -18.8900 155.497 100 945 bom main 633 625 P_____O_PPP_P_ SH131979 -18.8698 155.561 95 2 -18.9000 155.500 40 100 945 6.00000 -18.9569 155.081 70 964 -18.8698 155.561 TC 95 -18.8755 155.560 4 -18.8723 155.761 TC 105 945 139 139 4 240
1979042S05170 1979 11 SP EA KERRY 1979-02-20 00:00:00 TS -18.9175 155.433 main 625 609 O_____P_OOO_O_ jtwc_sh SH131979 -18.9000 155.500 95 2 -18.9224 155.428 40 100 945 -19.0000 155.000 70 965 -18.9000 155.500 TC 95 -18.9000 155.500 4 -18.9000 155.700 TC 105 945 4 255
1979042S05170 1979 11 SP EA KERRY 1979-02-20 03:00:00 TS -18.9533 155.249 main 601 601 P_____P_PPP_P_ SH131979 -18.9374 155.350 92 2 -18.9321 155.217 40 100 946 -19.0605 154.779 70 965 -18.9374 155.350 TC 92 -18.9308 155.318 4 -18.9375 155.485 TC 102 946 3 266
1979042S05170 1979 11 SP EA KERRY 1979-02-20 05:00:00 TS -18.9352 155.137 100 947 bom main 601 601 P_____O_PPP_P_ SH131979 -18.9193 155.253 90 2 -18.9000 155.100 40 100 947 6.00000 -19.0518 154.649 70 965 -18.9193 155.253 TC 90 -18.9147 155.200 4 -18.9193 155.355 TC 100 946 139 139 3 283
1979042S05170 1979 11 SP EA KERRY 1979-02-20 06:00:00 TS -18.9165 155.085 main 601 593 O_____P_POP_O_ jtwc_sh SH131979 -18.9000 155.200 90 2 -18.8833 155.066 40 98 947 -19.0348 154.589 70 965 -18.9000 155.200 TC 90 -18.8974 155.142 4 -18.9000 155.300 TC 100 947 3 300
1979042S05170 1979 11 SP EA KERRY 1979-02-20 09:00:00 TS -18.8282 154.940 main 594 594 P_____P_PPP_P_ SH131979 -18.8225 155.008 90 2 -18.7932 154.988 40 93 948 -18.9418 154.430 70 965 -18.8225 155.008 TC 90 -18.8152 154.971 4 -18.8299 155.215 TC 100 948 4 306
1979042S05170 1979 11 SP EA KERRY 1979-02-20 11:00:00 TS -18.7413 154.835 90 950 bom main 594 594 P_____O_PPP_P_ SH131979 -18.7443 154.869 90 2 -18.7000 154.900 40 90 950 5.50000 -18.8515 154.340 70 965 -18.7443 154.869 TC 90 -18.7411 154.857 4 -18.7499 155.151 TC 100 949 124 124 4 311
1979042S05170 1979 11 SP EA KERRY 1979-02-20 12:00:00 TS -18.6914 154.773 main 594 586 O_____P_OOO_O_ jtwc_sh SH131979 -18.7000 154.800 90 2 -18.6396 154.812 40 89 950 -18.8000 154.300 70 965 -18.7000 154.800 TC 90 -18.7000 154.800 4 100 -18.7000 155.100 TC 100 950 5 307
1979042S05170 1979 11 SP EA KERRY 1979-02-20 15:00:00 TS -18.5302 154.540 main 588 581 P_____P_PPP_P_ SH131979 -18.5575 154.592 90 2 -18.4285 154.490 40 86 951 -18.6309 154.172 68 966 -18.5575 154.592 TC 90 -18.5870 154.592 4 99 -18.5002 154.800 TC 97 951 5 307
1979042S05170 1979 11 SP EA KERRY 1979-02-20 17:00:00 TS -18.4151 154.391 85 952 bom main 590 583 P_____O_PPP_P_ SH131979 -18.4526 154.461 90 2 -18.3000 154.300 40 85 952 5.00000 -18.4945 154.103 67 967 -18.4526 154.461 TC 90 -18.4952 154.455 4 98 -18.3606 154.588 TC 95 951 119 119 5 311
1979042S05170 1979 11 SP EA KERRY 1979-02-20 18:00:00 TS -18.3615 154.330 main 583 583 O_____P_POP_O_ jtwc_sh SH131979 -18.4000 154.400 90 2 -18.2631 154.244 40 85 952 -18.4224 154.075 67 967 -18.4000 154.400 TC 90 -18.4451 154.390 4 98 -18.3000 154.500 TC 95 952 4 317
1979042S05170 1979 11 SP EA KERRY 1979-02-20 21:00:00 TS -18.2204 154.195 main 594 594 P_____P_PPP_P_ SH131979 -18.2575 154.220 90 2 -18.1794 154.145 40 85 953 -18.2027 154.015 66 968 -18.2575 154.220 TC 90 -18.2807 154.217 4 97 -18.2074 154.370 TC 95 953 4 323
1979042S05170 1979 11 SP EA KERRY 1979-02-20 23:00:00 TS -18.1197 154.134 85 955 bom main 597 597 P_____O_PPP_P_ SH131979 -18.1557 154.130 90 2 -18.1000 154.100 40 85 955 5.00000 -18.0640 154.000 65 969 -18.1557 154.130 TC 90 -18.1617 154.131 4 97 -18.1452 154.323 TC 95 954 119 119 4 334
1979042S05170 1979 11 SP EA KERRY 1979-02-21 00:00:00 TS -18.0608 154.108 main 597 597 O_____P_OOO_O_ jtwc_sh SH131979 -18.1000 154.100 90 2 -18.0259 154.056 40 84 955 -18.0000 154.000 65 970 -18.1000 154.100 TC 90 -18.1000 154.100 4 97 -18.1000 154.300 TC 95 955 4 343
1979042S05170 1979 11 SP EA KERRY 1979-02-21 03:00:00 TS -17.8543 154.046 main 608 608 P_____P_PPP_P_ SH131979 -17.9075 154.070 87 2 -17.7593 153.935 40 81 955 -17.8535 154.040 70 963 -17.9075 154.070 TC 87 -17.9021 154.068 4 96 -17.8500 154.170 TC 95 955 4 349
1979042S05170 1979 11 SP EA KERRY 1979-02-21 05:00:00 TS -17.7152 154.038 80 955 bom main 619 619 P_____O_PPP_P_ SH131979 -17.7693 154.086 85 2 -17.6000 153.900 40 80 955 5.00000 -17.7678 154.091 73 959 -17.7693 154.086 TC 85 -17.7627 154.078 4 96 -17.6741 154.110 TC 95 955 110 110 4 355
1979042S05170 1979 11 SP EA KERRY 1979-02-21 06:00:00 TS -17.6532 154.046 main 619 619 O_____P_POP_O_ jtwc_sh SH131979 -17.7000 154.100 85 2 -17.5522 153.911 40 80 955 -17.7275 154.120 75 957 -17.7000 154.100 TC 85 -17.6924 154.090 4 96 -17.6000 154.100 TC 95 955 4 20
1979042S05170 1979 11 SP EA KERRY 1979-02-21 09:00:00 TS -17.4947 154.116 main 639 639 P_____P_PPP_P_ SH131979 -17.4925 154.150 85 2 -17.4583 154.012 40 80 955 -17.6129 154.215 80 951 -17.4925 154.150 TC 85 -17.4865 154.143 4 95 -17.4850 154.170 TC 92 955 3 26
1979042S05170 1979 11 SP EA KERRY 1979-02-21 11:00:00 TS -17.3988 154.177 80 956 bom main 654 654 P_____O_PPP_P_ SH131979 -17.3610 154.186 85 2 -17.4000 154.100 40 80 956 4.50000 -17.5380 154.274 83 947 -17.3610 154.186 TC 85 -17.3591 154.182 4 95 -17.4312 154.256 TC 90 955 110 110 3 31
1979042S05170 1979 11 SP EA KERRY 1979-02-21 12:00:00 TS -17.3504 154.206 main 654 654 O_____P_OOO_O_ jtwc_sh SH131979 -17.3000 154.200 85 2 -17.3531 154.144 40 80 956 -17.5000 154.300 85 945 -17.3000 154.200 TC 85 -17.3000 154.200 4 95 -17.4000 154.300 TC 90 956 3 22
1979042S05170 1979 11 SP EA KERRY 1979-02-21 15:00:00 TS -17.2048 154.263 main 674 674 P_____P_PPP_P_ SH131979 -17.1350 154.200 82 1 -17.1975 154.265 40 80 956 -17.3750 154.327 80 951 -17.1350 154.200 TC 82 -17.1412 154.196 4 -17.2500 154.430 TC 90 956 3 18
1979042S05170 1979 11 SP EA KERRY 1979-02-21 17:00:00 TS -17.1152 154.286 80 957 bom main 680 680 P_____O_PPP_P_ SH131979 -17.0417 154.197 80 1 -17.1000 154.300 40 80 957 4.50000 -17.2916 154.338 76 955 -17.0417 154.197 TC 80 -17.0478 154.195 4 -17.1469 154.490 TC 90 956 110 110 3 5
1979042S05170 1979 11 SP EA KERRY 1979-02-21 18:00:00 TS -17.0741 154.287 main 680 680 O_____P_POP_O_ jtwc_sh SH131979 -17.0000 154.200 80 1 -17.0636 154.271 40 80 957 -17.2499 154.342 75 957 -17.0000 154.200 TC 80 -17.0049 154.197 4 -17.1000 154.500 TC 90 957 2 349
1979042S05170 1979 11 SP EA KERRY 1979-02-21 21:00:00 TS -16.9600 154.252 main 687 684 P_____P_PPP_P_ SH131979 -16.8925 154.220 77 1 -16.9691 154.133 40 83 957 -17.1250 154.361 70 963 -16.8925 154.220 TC 77 -16.8911 154.225 4 -17.0000 154.377 TC 90 957 2 349
1979042S05170 1979 11 SP EA KERRY 1979-02-21 23:00:00 TS -16.8877 154.253 85 957 bom main 693 693 P_____O_PPP_P_ SH131979 -16.8307 154.264 75 1 -16.9000 154.100 40 85 957 4.50000 -17.0416 154.384 66 967 -16.8307 154.264 TC 75 -16.8279 154.268 4 -16.9364 154.304 TC 90 957 119 119 2 8
1979042S05170 1979 11 SP EA KERRY 1979-02-22 00:00:00 TS -16.8493 154.278 main 699 699 O_____P_OOO_O_ jtwc_sh SH131979 -16.8000 154.300 75 1 -16.8453 154.146 40 85 957 -17.0000 154.400 65 970 -16.8000 154.300 TC 75 -16.8000 154.300 4 -16.9000 154.300 TC 90 957 4 48
1979042S05170 1979 11 SP EA KERRY 1979-02-22 03:00:00 TS -16.7149 154.456 main 723 723 P_____P_PPP_P_ SH131979 -16.6850 154.478 72 1 -16.6739 154.403 40 85 957 -16.8547 154.466 66 968 -16.6850 154.478 TC 72 -16.7082 154.450 4 -16.7276 154.505 TC 90 957 5 57
1979042S05170 1979 11 SP EA KERRY 1979-02-22 05:00:00 TS -16.6437 154.609 85 957 bom main 738 738 P_____O_PPP_P_ SH131979 -16.6219 154.626 70 1 -16.6000 154.600 40 85 957 4.50000 -16.7585 154.523 67 967 -16.6219 154.626 TC 70 -16.6598 154.578 4 -16.6298 154.704 TC 90 957 119 119 5 67
1979042S05170 1979 11 SP EA KERRY 1979-02-22 06:00:00 TS -16.6209 154.681 main 747 747 O_____P_POP_O_ jtwc_sh SH131979 -16.6000 154.700 70 1 -16.5938 154.667 40 84 957 -16.7124 154.555 67 967 -16.6000 154.700 TC 70 -16.6401 154.648 4 -16.6000 154.800 TC 90 957 4 81
1979042S05170 1979 11 SP EA KERRY 1979-02-22 09:00:00 TS -16.6054 154.868 main 764 764 P_____P_PPP_P_ SH131979 -16.5775 154.900 70 1 -16.6449 154.856 40 81 957 -16.5890 154.666 68 966 -16.5775 154.900 TC 70 -16.6020 154.872 4 -16.6199 154.992 TC 90 957 4 90
1979042S05170 1979 11 SP EA KERRY 1979-02-22 11:00:00 TS -16.6211 154.999 80 958 bom main 773 773 P_____O_PPP_P_ SH131979 -16.5890 155.033 70 1 -16.7000 155.000 40 80 958 4.50000 -16.5249 154.753 69 965 -16.5890 155.033 TC 70 -16.5962 155.025 4 -16.6728 155.125 TC 90 957 110 110 4 98
1979042S05170 1979 11 SP EA KERRY 1979-02-22 12:00:00 TS -16.6310 155.071 main 782 782 O_____P_OOO_O_ jtwc_sh SH131979 -16.6000 155.100 70 1 -16.7167 155.096 40 80 958 -16.5000 154.800 70 965 -16.6000 155.100 TC 70 -16.6000 155.100 4 90 -16.7000 155.200 TC 90 958 5 97
1979042S05170 1979 11 SP EA KERRY 1979-02-22 15:00:00 TS -16.6583 155.316 main 794 794 P_____P_PPP_P_ SH131979 -16.6350 155.300 67 1 -16.7667 155.413 40 80 959 -16.4439 154.970 70 965 -16.6350 155.300 TC 67 -16.6350 155.308 4 -16.7501 155.507 TC 87 959 5 98
1979042S05170 1979 11 SP EA KERRY 1979-02-22 17:00:00 TS -16.6881 155.477 80 960 bom main 811 811 P_____O_PPP_P_ SH131979 -16.6750 155.433 65 1 -16.8000 155.600 40 80 960 4.50000 -16.4272 155.094 70 965 -16.6750 155.433 TC 65 -16.6786 155.446 4 -16.7834 155.712 TC 85 959 110 110 5 102
1979042S05170 1979 11 SP EA KERRY 1979-02-22 18:00:00 TS -16.7059 155.549 main 811 811 O_____P_POP_O_ jtwc_sh SH131979 -16.7000 155.500 65 1 -16.8114 155.670 40 80 960 -16.4252 155.157 70 965 -16.7000 155.500 TC 65 -16.7050 155.515 4 -16.8000 155.800 TC 85 960 4 109
1979042S05170 1979 11 SP EA KERRY 1979-02-22 21:00:00 TS -16.7721 155.728 main 816 816 P_____P_PPP_P_ SH131979 -16.7925 155.707 65 1 -16.8508 155.824 40 80 961 -16.4439 155.342 70 965 -16.7925 155.707 TC 65 -16.7975 155.714 4 -16.8349 155.980 TC 85 961 4 115
1979042S05170 1979 11 SP EA KERRY 1979-02-22 23:00:00 TS -16.8295 155.829 80 962 bom main 823 821 P_____O_PPP_P_ SH131979 -16.8640 155.839 65 1 -16.9000 155.900 40 80 962 5.00000 -16.4771 155.451 70 965 -16.8640 155.839 TC 65 -16.8655 155.840 4 -16.8719 156.064 TC 85 961 110 110 3 123
1979042S05170 1979 11 SP EA KERRY 1979-02-23 00:00:00 TS -16.8634 155.877 main 821 819 O_____P_OOO_O_ jtwc_sh SH131979 -16.9000 155.900 65 1 -16.9438 155.936 40 79 962 -16.5000 155.500 70 965 -16.9000 155.900 TC 65 -16.9000 155.900 4 -16.9000 156.100 TC 85 962 3 131
1979042S05170 1979 11 SP EA KERRY 1979-02-23 03:00:00 TS -16.9789 156.011 main 819 818 P_____P_PPP_P_ SH131979 -17.0000 156.058 65 1 -17.1049 156.031 40 76 962 -16.5890 155.616 71 963 -17.0000 156.058 TC 65 -17.0009 156.068 4 -17.0500 156.200 TC 85 962 3 133
1979042S05170 1979 11 SP EA KERRY 1979-02-23 05:00:00 TS -17.0574 156.096 75 963 bom main 818 818 P_____O_PPP_P_ SH131979 -17.0667 156.153 65 1 -17.2000 156.100 40 75 963 4.50000 -16.6684 155.677 72 962 -17.0667 156.153 TC 65 -17.0718 156.173 4 -17.1562 156.264 TC 85 962 104 104 3 134
1979042S05170 1979 11 SP EA KERRY 1979-02-23 06:00:00 TS -17.0926 156.139 main 818 817 O_____P_POP_O_ jtwc_sh SH131979 -17.1000 156.200 65 1 -17.2281 156.147 40 75 963 -16.7124 155.702 72 962 -17.1000 156.200 TC 65 -17.1074 156.222 4 -17.2000 156.300 TC 85 963 3 128
1979042S05170 1979 11 SP EA KERRY 1979-02-23 09:00:00 TS -17.1828 156.269 main 825 825 P_____P_PPP_P_ SH131979 -17.2075 156.350 65 1 -17.2775 156.302 40 75 964 -16.8546 155.763 73 961 -17.2075 156.350 TC 65 -17.2103 156.365 4 -17.2650 156.450 TC 82 964 3 125
1979042S05170 1979 11 SP EA KERRY 1979-02-23 11:00:00 TS -17.2348 156.352 75 965 bom main 832 824 P_____O_PPP_P_ SH131979 -17.2724 156.450 65 1 -17.3000 156.400 40 75 965 4.50000 -16.9522 155.790 74 960 -17.2724 156.450 TC 65 -17.2721 156.456 4 -17.2886 156.553 TC 80 964 104 104 3 123
1979042S05170 1979 11 SP EA KERRY 1979-02-23 12:00:00 TS -17.2595 156.391 main 824 824 O_____P_OOO_O_ jtwc_sh SH131979 -17.3000 156.500 65 1 -17.3167 156.436 40 75 965 -17.0000 155.800 75 960 -17.3000 156.500 TC 65 -17.3000 156.500 4 85 -17.3000 156.600 TC 80 965 3 121
1979042S05170 1979 11 SP EA KERRY 1979-02-23 15:00:00 TS -17.3267 156.510 main 832 832 P_____P_PPP_P_ SH131979 -17.3575 156.658 62 0 -17.3666 156.531 40 75 966 -17.1412 155.826 75 960 -17.3575 156.658 TC 62 -17.3644 156.648 4 82 -17.3500 156.700 TC 80 966 3 120
1979042S05170 1979 11 SP EA KERRY 1979-02-23 17:00:00 TS -17.3675 156.586 75 967 bom main 832 832 P_____O_PPP_P_ SH131979 -17.3860 156.756 60 0 -17.4000 156.600 40 75 967 4.50000 -17.2348 155.831 75 960 -17.3860 156.756 TC 60 -17.3993 156.743 4 80 -17.3833 156.764 TC 80 966 104 104 2 121
1979042S05170 1979 11 SP EA KERRY 1979-02-23 18:00:00 TS -17.3870 156.624 main 832 832 O_____P_POP_O_ jtwc_sh SH131979 -17.4000 156.800 60 0 -17.4141 156.647 40 75 967 -17.2800 155.830 75 960 -17.4000 156.800 TC 60 -17.4150 156.788 4 80 -17.4000 156.800 TC 80 967 2 119
1979042S05170 1979 11 SP EA KERRY 1979-02-23 21:00:00 TS -17.4437 156.729 main 833 819 P_____P_PPP_P_ SH131979 -17.4500 156.908 60 0 -17.4588 156.802 40 75 968 -17.4037 155.819 75 960 -17.4500 156.908 TC 60 -17.4581 156.908 4 77 -17.4425 156.950 TC 77 968 2 121
1979042S05170 1979 11 SP EA KERRY 1979-02-23 23:00:00 TS -17.4828 156.792 75 970 bom main 819 819 P_____O_PPP_P_ SH131979 -17.4833 156.969 60 0 -17.5000 156.900 40 75 970 4.50000 -17.4717 155.807 75 960 -17.4833 156.969 TC 60 -17.4858 156.973 4 75 -17.4776 157.053 TC 75 969 104 104 2 125
1979042S05170 1979 11 SP EA KERRY 1979-02-24 00:00:00 TS -17.5043 156.821 main 819 805 O_____P_OOO_O_ jtwc_sh SH131979 -17.5000 157.000 60 0 -17.5302 156.944 40 74 970 -17.5000 155.800 75 960 -17.5000 157.000 TC 60 -17.5000 157.000 4 75 -17.5000 157.100 TC 75 970 2 129
1979042S05170 1979 11 SP EA KERRY 1979-02-24 03:00:00 TS -17.5794 156.918 main 805 795 P_____P_PPP_P_ SH131979 -17.5500 157.122 60 0 -17.6358 157.055 40 71 970 -17.5537 155.786 76 958 -17.5500 157.122 TC 60 -17.5661 157.098 4 -17.6000 157.222 TC 75 970 2 131
1979042S05170 1979 11 SP EA KERRY 1979-02-24 05:00:00 TS -17.6270 156.964 70 970 bom main 795 795 P_____O_PPP_P_ SH131979 -17.5833 157.184 60 0 -17.7000 157.100 40 70 970 4.50000 -17.5735 155.773 77 957 -17.5833 157.184 TC 60 -17.6096 157.146 4 -17.6698 157.281 TC 75 970 99 99 2 141
1979042S05170 1979 11 SP EA KERRY 1979-02-24 06:00:00 TS -17.6478 156.979 main 795 791 O_____P_POP_O_ jtwc_sh SH131979 -17.6000 157.200 60 0 -17.7250 157.127 40 70 970 -17.5800 155.765 77 957 -17.6000 157.200 TC 60 -17.6297 157.163 4 -17.7000 157.300 TC 75 970 1 160
1979042S05170 1979 11 SP EA KERRY 1979-02-24 09:00:00 TS -17.7013 156.991 main 791 791 P_____P_PPP_P_ SH131979 -17.6649 157.203 57 0 -17.7799 157.158 40 70 971 -17.5912 155.736 78 956 -17.6649 157.203 TC 57 -17.6785 157.170 4 -17.7649 157.360 TC 72 971 1 211
1979042S05170 1979 11 SP EA KERRY 1979-02-24 11:00:00 TS -17.7237 156.948 70 972 bom main 801 801 P_____O_PPP_P_ SH131979 -17.6947 157.147 55 0 -17.8000 157.100 40 70 972 4.50000 -17.5966 155.713 79 955 -17.6947 157.147 TC 55 -17.6966 157.134 4 -17.7916 157.340 TC 70 971 99 99 2 251
1979042S05170 1979 11 SP EA KERRY 1979-02-24 12:00:00 TS -17.7298 156.904 main 801 801 O_____P_OOO_O_ jtwc_sh SH131979 -17.7000 157.100 55 0 -17.8084 157.029 40 69 972 -17.6000 155.700 80 955 -17.7000 157.100 TC 55 -17.7000 157.100 4 -17.8000 157.300 TC 70 972 4 270
1979042S05170 1979 11 SP EA KERRY 1979-02-24 15:00:00 TS -17.7254 156.690 main 816 801 P_____P_PPP_P_ SH131979 -17.6651 156.880 55 0 -17.8135 156.717 40 66 973 -17.6290 155.669 80 955 -17.6651 156.880 TC 55 -17.6748 156.933 4 -17.8151 157.030 TC 70 973 4 273
1979042S05170 1979 11 SP EA KERRY 1979-02-24 17:00:00 TS -17.7073 156.517 65 974 bom main 801 793 P_____O_PPP_P_ SH131979 -17.6219 156.694 55 0 -17.8000 156.500 40 65 974 4.50000 -17.6482 155.645 80 955 -17.6219 156.694 TC 55 -17.6421 156.777 4 -17.8084 156.804 TC 70 973 89 89 5 277
1979042S05170 1979 11 SP EA KERRY 1979-02-24 18:00:00 TS -17.6960 156.435 main 793 778 O_____P_POP_O_ jtwc_sh SH131979 -17.6000 156.600 55 0 -17.7916 156.427 40 65 974 -17.6575 155.630 80 955 -17.6000 156.600 TC 55 -17.6227 156.690 4 -17.8000 156.700 TC 70 974 4 280
1979042S05170 1979 11 SP EA KERRY 1979-02-24 21:00:00 TS -17.6596 156.233 main 778 778 P_____P_PPP_P_ SH131979 -17.5499 156.358 52 0 -17.7466 156.238 40 65 975 -17.6821 155.576 80 955 -17.5499 156.358 TC 52 -17.5592 156.402 4 -17.7649 156.500 TC 67 975 4 282
1979042S05170 1979 11 SP EA KERRY 1979-02-24 23:00:00 TS -17.6281 156.093 65 976 bom main 778 771 P_____O_PPP_P_ SH131979 -17.5166 156.189 50 0 -17.7000 156.100 40 65 976 4.50000 -17.6950 155.528 80 955 -17.5166 156.189 TC 50 -17.5183 156.200 4 -17.7249 156.373 TC 65 975 89 89 4 283
1979042S05170 1979 11 SP EA KERRY 1979-02-25 00:00:00 TS -17.6096 156.015 main 771 756 O_____P_OOO_O_ jtwc_sh SH131979 -17.5000 156.100 50 0 -17.6672 156.006 40 64 976 -17.7000 155.500 80 955 -17.5000 156.100 TC 50 -17.5000 156.100 4 65 -17.7000 156.300 TC 65 976 5 285
1979042S05170 1979 11 SP EA KERRY 1979-02-25 03:00:00 TS -17.5425 155.748 main 757 749 P_____P_PPP_P_ SH131979 -17.4425 155.800 50 0 -17.5564 155.695 40 61 977 -17.7112 155.417 76 958 -17.4425 155.800 TC 50 -17.4597 155.824 4 -17.5926 156.000 TC 65 977 5 284
1979042S05170 1979 11 SP EA KERRY 1979-02-25 05:00:00 TS -17.5032 155.567 60 979 bom main 749 742 P_____O_PPP_P_ SH131979 -17.4110 155.597 50 0 -17.5000 155.500 30 60 979 4.00000 -17.7144 155.349 73 961 -17.4110 155.597 TC 50 -17.4372 155.636 4 -17.5246 155.794 TC 65 978 84 84 5 282
1979042S05170 1979 11 SP EA KERRY 1979-02-25 06:00:00 TS -17.4901 155.483 main 742 728 O_____P_POP_O_ jtwc_sh SH131979 -17.4000 155.500 50 0 -17.4885 155.430 30 60 979 -17.7148 155.310 72 962 -17.4000 155.500 TC 50 -17.4275 155.542 4 -17.5000 155.700 TC 65 979 4 275
1979042S05170 1979 11 SP EA KERRY 1979-02-25 09:00:00 TS -17.4802 155.269 main 728 715 P_____P_PPP_P_ SH131979 -17.3924 155.243 47 0 -17.4890 155.246 30 60 979 -17.7111 155.173 68 966 -17.3924 155.243 TC 47 -17.4066 155.265 4 -17.4848 155.508 TC 62 979 4 271
1979042S05170 1979 11 SP EA KERRY 1979-02-25 11:00:00 TS -17.4841 155.124 60 980 bom main 715 715 P_____O_PPP_P_ SH131979 -17.3973 155.081 45 0 -17.5000 155.100 30 60 980 4.00000 -17.7045 155.062 66 968 -17.3973 155.081 TC 45 -17.4004 155.086 4 -17.4947 155.379 TC 60 979 84 84 4 269
1979042S05170 1979 11 SP EA KERRY 1979-02-25 12:00:00 TS -17.4857 155.041 main 708 695 O_____P_OOO_O_ jtwc_sh SH131979 -17.4000 155.000 45 0 -17.5001 154.990 30 59 980 -17.7000 155.000 65 970 -17.4000 155.000 TC 45 -17.4000 155.000 2 -17.5000 155.300 TC 60 980 5 272
1979042S05170 1979 11 SP EA KERRY 1979-02-25 15:00:00 TS -17.4688 154.749 main 689 682 P_____P_PPP_P_ SH131979 -17.3925 154.742 42 0 -17.5001 154.618 30 56 981 -17.6416 154.785 62 972 -17.3925 154.742 TC 42 -17.3616 154.768 2 -17.5002 154.943 TC 60 981 6 273
1979042S05170 1979 11 SP EA KERRY 1979-02-25 17:00:00 TS -17.4613 154.558 55 982 bom main 682 676 P_____O_PPP_P_ SH131979 -17.3943 154.578 40 0 -17.5000 154.400 30 55 982 4.00000 -17.6002 154.623 60 974 -17.3943 154.578 TC 40 -17.3460 154.622 2 -17.5001 154.702 TC 60 981 75 75 5 272
1979042S05170 1979 11 SP EA KERRY 1979-02-25 18:00:00 TS -17.4584 154.475 main 676 663 O_____P_POP_O_ jtwc_sh SH131979 -17.4000 154.500 40 0 -17.4815 154.340 30 55 982 -17.5826 154.537 60 975 -17.4000 154.500 TC 40 -17.3447 154.549 2 -17.5000 154.600 TC 60 982 4 273
1979042S05170 1979 11 SP EA KERRY 1979-02-25 21:00:00 TS -17.4481 154.292 main 663 648 P_____P_PPP_P_ SH131979 -17.4049 154.307 40 0 -17.4445 154.217 30 55 983 -17.5572 154.270 57 977 -17.4049 154.307 TC 40 -17.3804 154.331 2 -17.4473 154.457 TC 57 983 4 264
1979042S05170 1979 11 SP EA KERRY 1979-02-25 23:00:00 TS -17.4908 154.165 55 984 bom main 648 639 P_____O_PPP_P_ SH131979 -17.4521 154.175 40 0 -17.5000 154.100 30 55 984 4.00000 -17.5761 154.089 55 979 -17.4521 154.175 TC 40 -17.4489 154.179 2 -17.4599 154.368 TC 55 983 75 75 4 245
1979042S05170 1979 11 SP EA KERRY 1979-02-26 00:00:00 TS -17.5403 154.083 main 639 595 O_____P_OOO_O_ jtwc_sh SH131979 -17.5000 154.100 40 0 -17.5821 153.982 30 55 984 -17.6000 154.000 55 980 -17.5000 154.100 TC 40 -17.5000 154.100 2 60 -17.5000 154.300 TC 55 984 8 231
1979042S05170 1979 11 SP EA KERRY 1979-02-26 03:00:00 TS -17.8138 153.742 main 586 556 P_____P_PPP_P_ SH131979 -17.7551 153.808 40 0 -17.9447 153.555 30 55 984 -17.7572 153.730 55 980 -17.7551 153.808 TC 40 -17.7512 153.796 2 58 -17.8128 153.901 TC 55 984 9 227
1979042S05170 1979 11 SP EA KERRY 1979-02-26 05:00:00 TS -18.0409 153.510 55 984 bom main 556 542 P_____O_PPP_P_ SH131979 -17.9812 153.600 40 0 -18.2000 153.300 30 55 984 4.00000 -17.9021 153.551 55 980 -17.9812 153.600 TC 40 -17.9663 153.586 2 57 -18.0765 153.618 TC 55 984 75 75 9 223
1979042S05170 1979 11 SP EA KERRY 1979-02-26 06:00:00 TS -18.1511 153.410 main 536 508 O_____P_POP_O_ jtwc_sh SH131979 -18.1000 153.500 40 0 -18.2920 153.224 30 55 984 -17.9826 153.463 55 980 -18.1000 153.500 TC 40 -18.0829 153.484 2 57 -18.2000 153.500 TC 55 984 8 217
1979042S05170 1979 11 SP EA KERRY 1979-02-26 09:00:00 TS -18.4508 153.180 main 503 488 P_____P_PPP_P_ SH131979 -18.4575 153.213 40 0 -18.5362 153.080 30 55 984 -18.2417 153.215 55 980 -18.4575 153.213 TC 40 -18.4481 153.205 2 56 -18.4573 153.320 TC 55 984 7 214
1979042S05170 1979 11 SP EA KERRY 1979-02-26 11:00:00 TS -18.6457 153.060 55 984 bom main 488 474 P_____O_PPP_P_ SH131979 -18.6921 153.058 40 0 -18.7000 153.000 30 55 984 4.00000 -18.4161 153.067 55 980 -18.6921 153.058 TC 40 -18.6871 153.058 2 55 -18.6161 153.242 TC 55 984 75 75 7 210
1979042S05170 1979 11 SP EA KERRY 1979-02-26 12:00:00 TS -18.7432 153.003 main 474 443 O_____P_OOO_O_ jtwc_sh SH131979 -18.8000 153.000 40 0 -18.8022 152.923 30 54 984 -18.5000 153.000 55 980 -18.8000 153.000 TC 40 -18.8000 153.000 2 55 -18.7000 153.200 TC 55 984 6 208
1979042S05170 1979 11 SP EA KERRY 1979-02-26 15:00:00 TS -19.0253 152.850 main 438 419 P_____P_PPP_P_ SH131979 -19.0649 152.905 40 0 -19.1183 152.692 30 51 984 -18.7070 152.839 51 982 -19.0649 152.905 TC 40 -19.0916 152.932 2 53 -19.0151 152.963 TC 55 984 6 204
1979042S05170 1979 11 SP EA KERRY 1979-02-26 17:00:00 TS -19.1982 152.790 50 985 bom main 419 409 P_____O_PPP_P_ SH131979 -19.2219 152.895 40 0 -19.3000 152.600 30 50 985 3.50000 -18.8411 152.751 48 984 -19.2219 152.895 TC 40 -19.2733 152.931 2 52 -19.2145 152.835 TC 55 984 69 69 5 195
1979042S05170 1979 11 SP EA KERRY 1979-02-26 18:00:00 TS -19.2755 152.779 main 409 390 O_____P_POP_O_ jtwc_sh SH131979 -19.3000 152.900 40 0 -19.3619 152.599 30 50 985 -18.9073 152.712 47 985 -19.3000 152.900 TC 40 -19.3597 152.939 2 52 -19.3000 152.800 TC 55 985 4 0
1979042S05170 1979 11 SP EA KERRY 1979-02-26 21:00:00 TS -19.4793 152.814 main 390 381 P_____P_PPP_P_ SH131979 -19.5650 152.950 40 0 -19.5005 152.701 30 50 986 -19.1039 152.604 43 987 -19.5650 152.950 TC 40 -19.5980 152.976 2 51 -19.4575 152.855 TC 52 986 4 166
1979042S05170 1979 11 SP EA KERRY 1979-02-26 23:00:00 TS -19.6038 152.859 50 987 bom main 387 378 P_____O_PPP_P_ SH131979 -19.7281 152.989 40 0 -19.6000 152.800 30 50 987 3.50000 -19.2345 152.535 41 989 -19.7281 152.989 TC 40 -19.7371 152.996 2 50 -19.5465 152.951 TC 50 986 69 69 4 163
1979042S05170 1979 11 SP EA KERRY 1979-02-27 00:00:00 TS -19.6685 152.878 main 378 360 O_____P_OOO_O_ jtwc_sh SH131979 -19.8000 153.000 40 0 -19.6798 152.844 30 50 987 -19.3000 152.500 40 990 -19.8000 153.000 TC 40 -19.8000 153.000 2 50 -19.6000 153.000 TC 50 987 4 174
1979042S05170 1979 11 SP EA KERRY 1979-02-27 03:00:00 TS -19.8791 152.904 main 360 352 P_____P_PPP_P_ SH131979 -19.9725 152.973 40 0 -19.9462 152.965 30 50 987 -19.5161 152.395 40 990 -19.9725 152.973 TC 40 -19.9812 152.959 2 48 -19.8575 153.130 TC 50 987 4 0
1979042S05170 1979 11 SP EA KERRY 1979-02-27 05:00:00 TS -20.0048 152.898 50 988 bom main 352 343 P_____O_PPP_P_ SH131979 -20.0610 152.928 40 0 -20.1000 153.000 30 50 988 3.50000 -19.6596 152.325 40 990 -20.0610 152.928 TC 40 -20.0812 152.919 2 47 -20.0285 153.189 TC 50 987 69 69 4 188
1979042S05170 1979 11 SP EA KERRY 1979-02-27 06:00:00 TS -20.0586 152.882 main 343 328 O_____P_POP_O_ jtwc_sh SH131979 -20.1000 152.900 40 0 -20.1557 152.995 30 50 988 -19.7297 152.287 40 990 -20.1000 152.900 TC 40 -20.1249 152.895 2 47 -20.1000 153.200 TC 50 988 3 209
1979042S05170 1979 11 SP EA KERRY 1979-02-27 09:00:00 TS -20.1911 152.789 main 328 313 P_____P_PPP_P_ SH131979 -20.2225 152.808 37 0 -20.2654 152.904 30 50 989 -19.9285 152.161 40 990 -20.2225 152.808 TC 37 -20.2312 152.809 2 46 -20.2375 153.145 TC 47 989 3 222
1979042S05170 1979 11 SP EA KERRY 1979-02-27 11:00:00 TS -20.2512 152.698 50 990 bom main 313 313 P_____O_PPP_P_ SH131979 -20.2807 152.736 35 0 -20.3000 152.800 30 50 990 3.50000 -20.0467 152.058 40 990 -20.2807 152.736 TC 35 -20.2812 152.739 2 45 -20.2859 153.055 TC 45 989 69 69 3 238
1979042S05170 1979 11 SP EA KERRY 1979-02-27 12:00:00 TS -20.2731 152.648 main 306 299 O_____P_OOO_O_ jtwc_sh SH131979 -20.3000 152.700 35 0 -20.3114 152.739 30 50 990 -20.1000 152.000 40 990 -20.3000 152.700 TC 35 -20.3000 152.700 2 45 -20.3000 153.000 TC 45 990 3 254
1979042S05170 1979 11 SP EA KERRY 1979-02-27 15:00:00 TS -20.3056 152.502 main 299 293 P_____P_PPP_P_ SH131979 -20.3150 152.615 35 0 -20.3109 152.528 30 50 990 -20.2370 151.786 37 991 -20.3150 152.615 TC 35 -20.3315 152.612 2 43 -20.3151 152.800 TC 45 990 3 261
1979042S05170 1979 11 SP EA KERRY 1979-02-27 17:00:00 TS -20.3094 152.396 50 991 bom main 293 293 P_____O_PPP_P_ SH131979 -20.3052 152.545 35 0 -20.3000 152.400 30 50 991 3.50000 -20.3119 151.623 35 992 -20.3052 152.545 TC 35 -20.3327 152.540 2 42 -20.3053 152.660 TC 45 990 69 69 3 268
1979042S05170 1979 11 SP EA KERRY 1979-02-27 18:00:00 TS -20.3110 152.344 main 287 281 O_____P_POP_O_ jtwc_sh SH131979 -20.3000 152.500 35 0 -20.3025 152.374 30 50 991 -20.3451 151.537 35 993 -20.3000 152.500 TC 35 -20.3294 152.497 2 42 -20.3000 152.600 TC 45 991 3 266
1979042S05170 1979 11 SP EA KERRY 1979-02-27 21:00:00 TS -20.3215 152.197 main 281 275 P_____P_PPP_P_ SH131979 -20.2924 152.345 35 0 -20.3077 152.311 30 50 992 -20.4307 151.270 32 995 -20.2924 152.345 TC 35 -20.3126 152.334 2 41 -20.3073 152.538 TC 42 992 3 267
1979042S05170 1979 11 SP EA KERRY 1979-02-27 23:00:00 TS -20.3258 152.061 50 994 bom main 275 270 P_____O_PPP_P_ SH131979 -20.2942 152.195 35 0 -20.3000 152.200 30 50 994 3.50000 -20.4783 151.089 30 996 -20.2942 152.195 TC 35 -20.3026 152.187 2 40 -20.3056 152.468 TC 40 993 69 69 4 269
1979042S05170 1979 11 SP EA KERRY 1979-02-28 00:00:00 TS -20.3263 151.969 main 270 252 O_____P_OOO_O_ jtwc_sh SH131979 -20.3000 152.100 35 0 -20.2839 152.085 30 50 994 -20.5000 151.000 30 997 -20.3000 152.100 TC 35 -20.3000 152.100 2 40 -20.3000 152.400 TC 40 994 6 269
1979042S05170 1979 11 SP EA KERRY 1979-02-28 03:00:00 TS -20.3308 151.604 main 252 236 P_____P_PPP_P_ SH131979 -20.3501 151.730 35 0 -20.2232 151.622 30 50 994 -20.5805 150.750 32 995 -20.3501 151.730 TC 35 -20.3262 151.776 2 40 -20.2428 151.987 TC 40 994 7 269
1979042S05170 1979 11 SP EA KERRY 1979-02-28 05:00:00 TS -20.3374 151.327 50 994 bom main 236 226 P_____O_PPP_P_ SH131979 -20.3864 151.444 35 0 -20.2000 151.300 30 50 994 3.50000 -20.6256 150.583 34 994 -20.3864 151.444 TC 35 -20.3473 151.520 2 40 -20.2080 151.657 TC 40 994 69 69 8 268
1979042S05170 1979 11 SP EA KERRY 1979-02-28 06:00:00 TS -20.3447 151.195 main 226 193 O_____P_POP_O_ jtwc_sh SH131979 -20.4000 151.300 35 0 -20.2103 151.183 30 50 994 -20.6449 150.500 35 993 -20.4000 151.300 TC 35 -20.3578 151.383 2 40 -20.2000 151.500 TC 40 994 7 265
1979042S05170 1979 11 SP EA KERRY 1979-02-28 09:00:00 TS -20.3797 150.835 main 183 165 P_____P_PPP_P_ SH131979 -20.4074 150.907 35 0 -20.2713 150.854 30 53 994 -20.6868 150.250 37 991 -20.4074 150.907 TC 35 -20.3855 150.948 2 40 -20.2496 151.165 TC 40 994 7 265
1979042S05170 1979 11 SP EA KERRY 1979-02-28 11:00:00 TS -20.3972 150.584 55 994 bom main 165 156 P_____O_PPP_P_ SH131979 -20.4025 150.639 35 0 -20.3000 150.600 30 55 994 3.00000 -20.6992 150.083 39 990 -20.4025 150.639 TC 35 -20.3972 150.649 2 40 -20.2893 150.934 TC 40 994 75 75 7 267
1979042S05170 1979 11 SP EA KERRY 1979-02-28 12:00:00 TS -20.3985 150.447 main 147 114 O_____P_OOO_O_ jtwc_sh SH131979 -20.4000 150.500 35 0 -20.2897 150.426 30 55 994 -20.7000 150.000 40 990 -20.4000 150.500 TC 35 -20.4000 150.500 2 40 -20.3000 150.800 TC 40 994 8 272
1979042S05170 1979 11 SP EA KERRY 1979-02-28 15:00:00 TS -20.3775 149.982 main 114 84 P_____P_PPP_P_ SH131979 -20.4075 150.050 35 0 -20.2287 149.849 30 55 994 -20.6868 149.750 40 990 -20.4075 150.050 TC 35 -20.3978 150.042 2 40 -20.2504 150.242 TC 40 994 9 273
1979042S05170 1979 11 SP EA KERRY 1979-02-28 17:00:00 TS -20.3561 149.676 55 995 bom main 84 73 P_____O_PPP_P_ SH131979 -20.4057 149.747 35 0 -20.2000 149.500 30 55 995 3.00000 -20.6616 149.583 40 990 -20.4057 149.747 TC 35 -20.3880 149.733 2 40 -20.2107 149.865 TC 40 994 75 75 8 274
1979042S05170 1979 11 SP EA KERRY 1979-02-28 18:00:00 TS -20.3483 149.536 main 66 38 O_____P_POP_O_ jtwc_sh SH131979 -20.4000 149.600 35 0 -20.2129 149.369 30 55 995 -20.6449 149.500 40 990 -20.4000 149.600 TC 35 -20.3806 149.582 2 40 -20.2000 149.700 TC 40 995 7 272
1979042S05170 1979 11 SP EA KERRY 1979-02-28 21:00:00 TS -20.3357 149.168 main 38 20 P_____P_PPP_P_ SH131979 -20.3575 149.170 35 0 -20.2793 149.065 30 55 995 -20.5805 149.250 40 990 -20.3575 149.170 TC 35 -20.3479 149.157 2 40 -20.2572 149.355 TC 40 995 7 273
1979042S05170 1979 11 SP EA KERRY 1979-02-28 23:00:00 TS -20.3193 148.956 55 995 bom main 20 10 P_____O_PPP_P_ SH131979 -20.3193 148.914 35 0 -20.3000 148.900 30 55 995 3.00000 -20.5282 149.083 40 990 -20.3193 148.914 TC 35 -20.3176 148.909 2 40 -20.2951 149.181 TC 40 995 75 75 6 276
1979042S05170 1979 11 SP EA KERRY 1979-03-01 00:00:00 TS -20.3044 148.858 main 10 0 O_____P_OOO_O_ jtwc_sh SH131979 -20.3000 148.800 35 0 -20.2812 148.806 30 54 995 -20.5000 149.000 40 990 -20.3000 148.800 TC 35 -20.3000 148.800 2 40 -20.3000 149.100 TC 40 995 5 283
1979042S05170 1979 11 SP EA KERRY 1979-03-01 03:00:00 TS -20.2405 148.592 main 0 0 P_____P_PPP_P_ SH131979 -20.2574 148.505 40 0 -20.1751 148.545 30 51 995 -20.4143 148.750 37 991 -20.2574 148.505 TC 40 -20.2348 148.541 2 38 -20.2150 148.827 TC 37 995 5 287
1979042S05170 1979 11 SP EA KERRY 1979-03-01 05:00:00 TS -20.1892 148.447 50 996 bom main 10 10 P_____O_PPP_P_ SH131979 -20.2224 148.358 43 0 -20.1000 148.400 30 50 996 3.00000 -20.3491 148.583 35 992 -20.2224 148.358 TC 43 -20.1837 148.409 2 37 -20.1355 148.669 TC 35 995 69 69 4 291
1979042S05170 1979 11 SP EA KERRY 1979-03-01 06:00:00 TS -20.1646 148.384 main 10 0 O_____P_POP_O_ jtwc_sh SH131979 -20.2000 148.300 45 0 -20.0802 148.333 30 50 996 -20.3149 148.500 35 993 -20.2000 148.300 TC 45 -20.1569 148.353 2 37 -20.1000 148.600 TC 35 996 3 296
1979042S05170 1979 11 SP EA KERRY 1979-03-01 09:00:00 TS -20.0900 148.227 main 0 0 P_____P_PPP_P_ SH131979 -20.0999 148.178 47 0 -20.0358 148.173 30 50 997 -20.2080 148.250 32 995 -20.0999 148.178 TC 47 -20.0756 148.213 2 36 -20.0500 148.420 TC 35 997 3 300
1979042S05170 1979 11 SP EA KERRY 1979-03-01 11:00:00 TS -20.0376 148.146 50 998 bom main 0 0 P_____O_PPP_P_ SH131979 -20.0302 148.125 49 0 -20.0000 148.100 30 50 998 3.00000 -20.1358 148.083 30 996 -20.0302 148.125 TC 49 -20.0240 148.136 2 35 -20.0197 148.333 TC 35 997 69 69 3 306
1979042S05170 1979 11 SP EA KERRY 1979-03-01 12:00:00 TS -20.0100 148.111 main 0 0 O_____P_OOO_O_ jtwc_sh SH131979 -20.0000 148.100 50 0 -19.9697 148.075 30 49 998 -20.1000 148.000 30 997 -20.0000 148.100 TC 50 -20.0000 148.100 2 35 -20.0000 148.300 TC 35 998 3 306
1979042S05170 1979 11 SP EA KERRY 1979-03-01 15:00:00 TS -19.9378 148.000 main 10 0 P_____P_PPP_P_ SH131979 -19.9425 148.000 47 0 -19.8642 148.030 30 46 999 -20.0327 147.709 30 997 -19.9425 148.000 TC 47 -19.9752 147.970 2 -19.9000 148.243 TC 32 999 2 305
1979042S05170 1979 11 SP EA KERRY 1979-03-01 17:00:00 TS -19.8918 147.931 45 1000 bom main 0 0 P_____O_PPP_P_ SH131979 -19.9140 147.933 45 0 -19.8000 148.000 30 45 1000 2.50000 -19.9865 147.517 30 997 -19.9140 147.933 TC 45 -19.9615 147.896 2 -19.8302 148.217 TC 30 999 64 64 2 304
1979042S05170 1979 11 SP EA KERRY 1979-03-01 18:00:00 TS -19.8712 147.894 main 0 0 O_____P_POP_O_ jtwc_sh SH131979 -19.9000 147.900 45 0 -19.7855 147.972 30 42 1000 -19.9603 147.425 30 997 -19.9000 147.900 TC 45 -19.9524 147.863 2 -19.8000 148.200 TC 30 1000 2 296
1979042S05170 1979 11 SP EA KERRY 1979-03-01 21:00:00 TS -19.8197 147.775 main 0 0 P_____P_PPP_P_ SH131979 -19.8725 147.793 42 0 -19.7516 147.872 30 35 1001 -19.8577 147.178 30 997 -19.8725 147.793 TC 42 -19.9034 147.774 2 -19.7650 148.108 TC 27 1001 3 301
1979042S05170 1979 11 SP EA KERRY 1979-03-01 23:00:00 TS -19.7637 147.700 30 1002 bom main 0 0 P_____O_PPP_P_ SH131979 -19.8338 147.728 40 0 -19.7000 147.800 20 30 1002 2.50000 -19.7602 147.050 30 997 -19.8338 147.728 TC 40 -19.8422 147.723 2 -19.7312 148.036 TC 25 1001 45 45 3 313
1979042S05170 1979 11 SP EA KERRY 1979-03-02 00:00:00 TS -19.7219 147.667 main 10 0 O_____P_OOO_O_ jtwc_sh SH131979 -19.8000 147.700 40 0 -19.6531 147.767 20 30 1001 -19.7000 147.000 30 997 -19.8000 147.700 TC 40 -19.8000 147.700 2 -19.7000 148.000 TC 25 1002 4 335
1979042S05170 1979 11 SP EA KERRY 1979-03-02 03:00:00 TS -19.5391 147.586 main 10 10 P_____P_PPP_P_ SH131979 -19.6375 147.643 37 0 -19.4575 147.667 20 30 1001 -19.4492 146.920 32 995 -19.6375 147.643 TC 37 -19.6318 147.632 2 -19.5300 147.900 TC 25 1001 4 341
1979042S05170 1979 11 SP EA KERRY 1979-03-02 05:00:00 TS -19.3818 147.542 30 1001 bom main 10 10 P_____O_PPP_P_ SH131979 -19.4860 147.614 35 0 -19.3000 147.600 20 30 1001 2.50000 -19.2503 146.907 34 994 -19.4860 147.614 TC 35 -19.4867 147.594 2 -19.3802 147.833 TC 25 1001 45 45 5 348
1979042S05170 1979 11 SP EA KERRY 1979-03-02 06:00:00 TS -19.2975 147.521 main 15 15 O_____P_POP_O_ jtwc_sh SH131979 -19.4000 147.600 35 0 -19.2329 147.561 20 30 1000 -19.1448 146.910 35 993 -19.4000 147.600 TC 35 -19.4049 147.577 2 -19.3000 147.800 TC 25 1001 5 347
1979042S05170 1979 11 SP EA KERRY 1979-03-02 09:00:00 TS -19.0321 147.457 main 45 44 P_____P_PPP_P_ SH131979 -19.1300 147.550 35 0 -19.0037 147.451 20 30 999 -18.8180 146.945 37 991 -19.1300 147.550 TC 35 -19.1256 147.535 2 -19.0875 147.685 TC 27 1000 6 349
1979042S05170 1979 11 SP EA KERRY 1979-03-02 11:00:00 TS -18.8250 147.424 30 999 bom main 67 67 P_____O_PPP_P_ SH131979 -18.9167 147.517 35 0 -18.8000 147.400 20 30 999 2.50000 -18.6031 146.981 39 990 -18.9167 147.517 TC 35 -18.9133 147.511 2 -18.9088 147.622 TC 29 999 45 45 7 355
1979042S05170 1979 11 SP EA KERRY 1979-03-02 12:00:00 TS -18.7097 147.413 main 78 78 O_____P_OOO_O_ jtwc_sh SH131979 -18.8000 147.500 35 0 -18.6676 147.389 20 30 998 -18.5000 147.000 40 990 -18.8000 147.500 TC 35 -18.8000 147.500 2 35 -18.8000 147.600 TC 30 999 8 355
1979042S05170 1979 11 SP EA KERRY 1979-03-02 15:00:00 TS -18.3175 147.390 main 118 118 P_____P_PPP_P_ SH131979 -18.4150 147.442 35 0 -18.2059 147.389 20 30 997 -18.2356 147.027 40 990 -18.4150 147.442 TC 35 -18.3863 147.456 2 35 -18.3650 147.585 TC 32 998 8 359
1979042S05170 1979 11 SP EA KERRY 1979-03-02 17:00:00 TS -18.0442 147.385 30 997 bom main 134 134 P_____O_PPP_P_ SH131979 -18.1386 147.411 35 0 -17.9000 147.400 20 30 997 2.50000 -18.0674 147.054 40 990 -18.1386 147.411 TC 35 -18.0885 147.430 2 35 -18.0491 147.595 TC 34 997 45 45 8 0
1979042S05170 1979 11 SP EA KERRY 1979-03-02 18:00:00 TS -17.9120 147.384 main 138 137 O_____P_POP_O_ jtwc_sh SH131979 -18.0000 147.400 35 0 -17.7588 147.397 20 31 996 -17.9850 147.070 40 990 -18.0000 147.400 TC 35 -17.9400 147.420 2 35 -17.9000 147.600 TC 35 997 8 360
1979042S05170 1979 11 SP EA KERRY 1979-03-02 21:00:00 TS -17.5344 147.382 main 137 137 P_____P_PPP_P_ SH131979 -17.5700 147.385 35 0 -17.3830 147.392 20 36 995 -17.7419 147.127 40 990 -17.5700 147.385 TC 35 -17.5237 147.399 2 35 -17.4975 147.592 TC 37 996 7 2
1979042S05170 1979 11 SP EA KERRY 1979-03-02 23:00:00 TS -17.3215 147.392 40 995 bom main 138 138 P_____O_PPP_P_ SH131979 -17.3105 147.392 35 0 -17.2000 147.400 30 40 995 3.00000 -17.5809 147.174 40 990 -17.3105 147.392 TC 35 -17.2938 147.397 2 35 -17.2829 147.594 TC 39 995 55 55 6 3
1979042S05170 1979 11 SP EA KERRY 1979-03-03 00:00:00 TS -17.2336 147.402 main 139 139 O_____P_OOO_O_ jtwc_sh SH131979 -17.2000 147.400 35 0 -17.1355 147.414 30 41 994 -17.5000 147.200 40 990 -17.2000 147.400 TC 35 -17.2000 147.400 2 35 -17.2000 147.600 TC 40 995 5 9
1979042S05170 1979 11 SP EA KERRY 1979-03-03 03:00:00 TS -17.0242 147.449 main 145 145 P_____P_PPP_P_ SH131979 -16.9250 147.443 35 0 -17.0316 147.469 30 46 994 -17.1808 147.262 37 991 -16.9250 147.443 TC 35 -16.9966 147.425 2 38 -17.0550 147.650 TC 40 994 4 15
1979042S05170 1979 11 SP EA KERRY 1979-03-03 05:00:00 TS -16.9371 147.486 50 994 bom main 158 158 P_____O_PPP_P_ SH131979 -16.8219 147.481 35 0 -17.0000 147.500 30 50 994 3.50000 -16.9707 147.311 35 992 -16.8219 147.481 TC 35 -16.9191 147.453 2 41 -17.0145 147.686 TC 40 994 69 69 3 24
1979042S05170 1979 11 SP EA KERRY 1979-03-03 06:00:00 TS -16.9042 147.502 main 158 158 O_____P_POP_O_ jtwc_sh SH131979 -16.8000 147.500 35 0 -16.9593 147.500 30 49 994 -16.8723 147.341 35 993 -16.8000 147.500 TC 35 -16.8975 147.470 2 42 -17.0000 147.700 TC 40 994 2 32
1979042S05170 1979 11 SP EA KERRY 1979-03-03 09:00:00 TS -16.8421 147.536 main 163 163 P_____P_PPP_P_ SH131979 -16.8325 147.550 35 0 -16.8726 147.490 30 46 994 -16.6277 147.449 32 995 -16.8325 147.550 TC 35 -16.8997 147.531 2 46 -16.8900 147.693 TC 40 994 1 64
1979042S05170 1979 11 SP EA KERRY 1979-03-03 11:00:00 TS -16.8692 147.567 45 994 bom main 168 168 P_____O_PPP_P_ SH131979 -16.9338 147.583 35 0 -16.9000 147.500 30 45 994 3.00000 -16.5263 147.544 30 996 -16.9338 147.583 TC 35 -16.9559 147.576 2 48 -16.8741 147.691 TC 40 994 64 64 2 139
1979042S05170 1979 11 SP EA KERRY 1979-03-03 12:00:00 TS -16.9086 147.589 main 168 165 O_____P_OOO_O_ jtwc_sh SH131979 -17.0000 147.600 35 0 -16.9600 147.522 30 44 994 -16.5000 147.600 30 997 -17.0000 147.600 TC 35 -17.0000 147.600 2 50 -16.9000 147.700 TC 40 994 4 156
1979042S05170 1979 11 SP EA KERRY 1979-03-03 15:00:00 TS -17.1123 147.673 main 173 170 P_____P_PPP_P_ SH131979 -17.2200 147.643 -1 -17.2620 147.622 30 41 994 -16.5087 147.813 30 997 -17.2200 147.643 TC -17.1732 147.628 2 47 -17.1475 147.785 TC 40 994 5 159
1979042S05170 1979 11 SP EA KERRY 1979-03-03 17:00:00 TS -17.2997 147.743 40 994 bom main 170 170 P_____O_PPP_P_ SH131979 -17.4031 147.678 -1 -17.5000 147.700 30 40 994 3.00000 -16.5843 147.978 30 997 -17.4031 147.678 TC -17.3412 147.652 2 45 -17.3816 147.861 TC 40 994 55 55 6 160
1979042S05170 1979 11 SP EA KERRY 1979-03-03 18:00:00 TS -17.3961 147.780 main 180 180 O_____P_POP_O_ jtwc_sh SH131979 -17.5000 147.700 -1 -17.5947 147.726 30 40 993 -16.6409 148.066 30 997 -17.5000 147.700 TC -17.4372 147.668 2 45 -17.5000 147.900 TC 40 994 6 161
1979042S05170 1979 11 SP EA KERRY 1979-03-03 21:00:00 TS -17.6820 147.889 main 190 179 P_____P_PPP_P_ SH131979 -17.7924 147.763 -1 -17.8841 147.810 30 40 993 -16.8777 148.336 30 997 -17.7924 147.763 TC -17.7575 147.750 2 42 -17.7849 147.978 TC 40 993 6 158
1979042S05170 1979 11 SP EA KERRY 1979-03-03 23:00:00 TS -17.8916 147.989 40 993 bom main 179 168 P_____O_PPP_P_ SH131979 -17.9973 147.841 -1 -18.1000 147.900 30 40 993 3.00000 -17.0842 148.514 30 997 -17.9973 147.841 TC -17.9855 147.841 2 40 -17.9885 148.050 TC 40 993 55 55 7 155
1979042S05170 1979 11 SP EA KERRY 1979-03-04 00:00:00 TS -18.0046 148.052 main 173 149 O_____P_OOO_O_ jtwc_sh SH131979 -18.1000 147.900 -1 -18.2324 147.961 30 39 993 -17.2000 148.600 30 997 -18.1000 147.900 TC -18.1000 147.900 2 40 -18.1000 148.100 TC 40 993 8 149
1979042S05170 1979 11 SP EA KERRY 1979-03-04 03:00:00 TS -18.3609 148.289 main 146 138 P_____P_PPP_P_ SH131979 -18.3925 148.163 -1 -18.6540 148.201 30 36 993 -17.5909 148.839 -18.3925 148.163 TC -18.3743 148.149 2 38 -18.5150 148.312 TC 40 993 9 146
1979042S05170 1979 11 SP EA KERRY 1979-03-04 05:00:00 TS -18.6032 148.484 35 994 bom main 145 138 P_____O_PPP_P_ SH131979 -18.5943 148.384 -1 -18.9000 148.400 30 35 994 3.00000 -17.8845 148.983 -18.5943 148.384 TC -18.5665 148.356 2 37 -18.7842 148.497 TC 40 993 49 49 9 142
1979042S05170 1979 11 SP EA KERRY 1979-03-04 06:00:00 TS -18.7166 148.587 main 146 128 O_____P_POP_O_ jtwc_sh SH131979 -18.7000 148.500 -1 -18.9737 148.500 30 35 994 -18.0403 149.051 -18.7000 148.500 TC -18.6678 148.468 2 37 -18.9000 148.600 TC 40 994 9 135
1979042S05170 1979 11 SP EA KERRY 1979-03-04 09:00:00 TS -19.0165 148.913 main 128 122 P_____P_PPP_P_ SH131979 -19.0125 148.843 -1 -19.1409 148.841 30 35 994 -18.5401 149.242 -19.0125 148.843 TC -19.0024 148.828 2 36 -19.0849 148.921 TC 40 994 9 135
1979042S05170 1979 11 SP EA KERRY 1979-03-04 11:00:00 TS -19.2430 149.147 35 994 bom main 122 109 P_____O_PPP_P_ SH131979 -19.2579 149.081 -1 -19.3000 149.100 30 35 994 3.00000 -18.8971 149.359 -19.2579 149.081 TC -19.2591 149.076 2 35 -19.2095 149.167 TC 40 994 49 49 10 137
1979042S05170 1979 11 SP EA KERRY 1979-03-04 12:00:00 TS -19.3785 149.267 main 113 92 O_____P_POO_O_ jtwc_sh SH131979 -19.4000 149.200 -1 -19.4272 149.244 30 34 994 -19.0819 149.415 -19.4000 149.200 TC -19.4000 149.200 2 35 -19.3000 149.300 TC 40 994 12 145
1979042S05170 1979 11 SP EA KERRY 1979-03-04 15:00:00 TS -19.8824 149.625 main 94 94 P_____P_PPP_P_ SH131979 -19.9199 149.550 -1 -19.9184 149.705 30 31 995 -19.6572 149.573 -19.9199 149.550 TC -19.9177 149.542 2 35 -19.7401 149.750 TC 37 995 13 148
1979042S05170 1979 11 SP EA KERRY 1979-03-04 17:00:00 TS -20.2626 149.858 30 997 bom main 106 104 P_____O_PPP_P_ SH131979 -20.3061 149.783 -1 -20.3000 150.000 20 30 997 2.50000 -20.0553 149.672 -20.3061 149.783 TC -20.2977 149.775 2 35 -20.1062 150.056 TC 35 996 45 45 13 151
1979042S05170 1979 11 SP EA KERRY 1979-03-04 18:00:00 TS -20.4539 149.960 main 106 99 O_____P_POP_O_ jtwc_sh SH131979 -20.5000 149.900 -1 -20.4966 150.134 20 30 997 -20.2577 149.721 -20.5000 149.900 TC -20.4923 149.892 2 35 -20.3000 150.200 TC 35 997 13 154
1979042S05170 1979 11 SP EA KERRY 1979-03-04 21:00:00 TS -21.0367 150.266 main 112 98 P_____P_PPP_P_ SH131979 -21.0724 150.250 -1 -21.0961 150.486 20 30 998 -20.8748 149.862 -21.0724 150.250 TC -21.0708 150.245 2 35 -20.8950 150.575 TC 32 998 13 154
1979042S05170 1979 11 SP EA KERRY 1979-03-04 23:00:00 TS -21.4104 150.471 30 999 bom main 103 89 P_____O_PPP_P_ SH131979 -21.4338 150.483 -1 -21.5000 150.700 20 30 999 2.50000 -21.2913 149.954 -21.4338 150.483 TC -21.4324 150.482 2 35 -21.2979 150.794 TC 30 998 45 45 12 152
1979042S05170 1979 11 SP EA KERRY 1979-03-05 00:00:00 TS -21.5857 150.579 main 89 49 O_______OOO_O_ jtwc_sh SH131979 -21.6000 150.600 -1 20 -21.5000 150.000 30 997 -21.6000 150.600 TC -21.6000 150.600 2 35 -21.5000 150.900 TC 30 999 12 145
1979042S05170 1979 11 SP EA KERRY 1979-03-05 03:00:00 TS -22.0382 150.951 main 54 45 P________PP___ SH131979 -22.0374 150.950 -1 20 -22.0374 150.950 TC -22.0399 150.952 2 TC 11 141
1979042S05170 1979 11 SP EA KERRY 1979-03-05 06:00:00 TS -22.4010 151.301 main 52 52 O________OP___ jtwc_sh SH131979 -22.4000 151.300 -1 -22.4000 151.300 TC -22.4029 151.302 2 9 136
1979042S05170 1979 11 SP EA KERRY 1979-03-05 09:00:00 TS -22.7133 151.650 main 92 92 P________PP___ SH131979 -22.7127 151.650 -1 -22.7127 151.650 TC -22.7145 151.651 2 9 133
1979042S05170 1979 11 SP EA KERRY 1979-03-05 12:00:00 TS -23.0000 152.000 main 123 O________OO___ jtwc_sh SH131979 -23.0000 152.000 -1 -23.0000 152.000 TC -23.0000 152.000 6 9 132

デジタル台風データ・検索

IBTrACS Databaseについて

本データベースは、米国NOAAが公開する1842年以降の世界の熱帯低気圧のベストトラックデータアーカイブInternational Best Track Archive for Climate Stewardship (IBTrACS)を、ウェブで閲覧しやすい形式に変換したものです。

最終更新日:2021-12-01